Flight Track Log - Related Links

Times and Time Zones

All times are in EDT time to prevent confusion due to time zone crossing. See the VH-OQJ flight status page for this flight to view local times or setup timezone preferences in your user account.

Time Position Orientation Groundspeed Altitude Reporting Facility
EDT Latitude Longitude Course Direction KTS MPH feet Rate Location/Type
Mon 11:15:32 PM -33.9340 151.1690 168° South 2 2  Level FlightAware ADS-B
Mon 11:19:52 PM -33.9350 151.1690 180° South 26 Level FlightAware ADS-B
Mon 11:20:42 PM -33.9350 151.1700 90° East 7 8 37 Level FlightAware ADS-B
Mon 11:21:07 PM -33.9350 151.1710 90° East 6 7 40 Level FlightAware ADS-B
Mon 11:22:32 PM -33.9320 151.1690 331° Northwest 11 13 42 Level FlightAware ADS-B
Mon 11:23:27 PM -33.9300 151.1700 23° Northeast 6 7 49 Level FlightAware ADS-B
Mon 11:26:00 PM -33.9167 151.5897 90° East  Level FlightAware Approximate
Mon 11:27:00 PM -33.9095 151.7538 84° East  Level FlightAware Approximate
Mon 11:28:00 PM -33.9000 151.9177 90° East  Level FlightAware Approximate
Mon 11:28:52 PM -33.9300 151.1710 90° East 4 5  Level FlightAware ADS-B
Mon 11:29:32 PM -33.9300 151.1720 90° East 9 10 214 Level FlightAware ADS-B
Mon 11:30:27 PM -33.9500 151.1770 168° South 148 170 333 Level FlightAware ADS-B
Mon 11:30:44 PM -33.9650 151.1809 168° South 152 175 400 800 Climbing Aus ATC (RADAR)
Mon 11:30:57 PM -33.9720 151.1820 168° South 162 186 400 837 Level FlightAware ADS-B
Mon 11:31:27 PM -33.9950 151.1800 184° South 160 184 1,000 1,200 Climbing FlightAware ADS-B
Mon 11:31:52 PM -34.0140 151.1770 187° South 176 203 1,500 1,154 Climbing FlightAware ADS-B
Mon 11:32:19 PM -34.0414 151.1779 187° South 190 219 2,000 600 Climbing Aus ATC (RADAR)
Mon 11:32:22 PM -34.0410 151.1780 187° South 197 227 1,800 429 Descending FlightAware ADS-B
Mon 11:32:47 PM -34.0670 151.1860 166° South 231 266 2,200 982 Climbing FlightAware ADS-B
Mon 11:33:17 PM -34.0970 151.2040 154° Southeast 253 291 2,700 1,200 Climbing FlightAware ADS-B
Mon 11:33:32 PM -34.1050 151.2210 120° Southeast 251 289 3,100 2,813 Climbing FlightAware ADS-B
Mon 11:33:49 PM -34.1087 151.2486 120° Southeast 247 284 4,200 2,160 Climbing Aus ATC (RADAR)
Mon 11:33:57 PM -34.1090 151.2580 120° Southeast 255 293 4,000 1,371 Descending FlightAware ADS-B
Mon 11:34:24 PM -34.1121 151.2998 120° Southeast 262 302 5,000 1,800 Climbing Aus ATC (RADAR)
Mon 11:34:27 PM -34.1120 151.3030 120° Southeast 270 311 4,900 1,286 Descending FlightAware ADS-B
Mon 11:34:52 PM -34.1140 151.3400 94° East 281 323 5,600 1,600 Climbing FlightAware ADS-B
Mon 11:35:12 PM -34.1150 151.3680 94° East 289 333 6,100 2,400 Climbing FlightAware ADS-B
Mon 11:35:17 PM -34.1146 151.3820 94° East 280 322 6,600 1,680 Climbing Aus ATC (RADAR)
Mon 11:35:37 PM -34.1040 151.4090 72° East 297 342 6,800 1,467 Climbing FlightAware ADS-B
Mon 11:36:02 PM -34.0840 151.4430 55° Northeast 297 342 7,700 1,920 Climbing FlightAware ADS-B
Mon 11:36:27 PM -34.0650 151.4770 56° Northeast 304 350 8,400 1,855 Climbing FlightAware ADS-B
Mon 11:36:57 PM -34.0400 151.5210 56° Northeast 310 357 9,400 2,308 Climbing FlightAware ADS-B
Mon 11:37:19 PM -34.0206 151.5544 56° Northeast 311 358 10,400 2,000 Climbing Aus ATC (RADAR)
Mon 11:37:36 PM -34.0056 151.5805 55° Northeast 316 364 10,700 261 Climbing Aus ATC (RADAR)
Mon 11:37:42 PM -34.0030 151.5850 55° Northeast 333 383 10,500 686 Descending FlightAware ADS-B
Mon 11:38:11 PM -33.9782 151.6387 55° Northeast 338 389 11,100 686 Climbing Aus ATC (RADAR)
Mon 11:38:17 PM -33.9760 151.6460 55° Northeast 362 417 10,900 536 Descending FlightAware ADS-B
Mon 11:39:07 PM -33.9580 151.7530 79° East 405 466 11,600 1,214 Climbing FlightAware ADS-B
Mon 11:39:41 PM -33.9446 151.8333 79° East 402 463 12,600 1,350 Climbing Aus ATC (RADAR)
Mon 11:39:47 PM -33.9430 151.8430 79° East 421 484 12,500 1,294 Descending FlightAware ADS-B
Mon 11:40:32 PM -33.9270 151.9370 78° East 425 489 13,700 1,967 Climbing FlightAware ADS-B
Mon 11:40:48 PM -33.9188 151.9898 78° East 429 494 14,500 1,650 Climbing Aus ATC (RADAR)
Mon 11:41:12 PM -33.9120 152.0330 78° East 434 499 14,800 1,406 Climbing FlightAware ADS-B
Mon 11:41:52 PM -33.9070 152.1310 87° East 438 504 16,000 1,412 Climbing FlightAware ADS-B
Mon 11:42:37 PM -33.9080 152.2440 91° East 453 521 16,800 1,606 Climbing FlightAware ADS-B
Mon 11:43:03 PM -33.9082 152.3208 91° East 449 517 17,900 1,650 Climbing Aus ATC (RADAR)
Mon 11:43:17 PM -33.9080 152.3450 91° East 456 525 17,900 1,579 Level FlightAware ADS-B
Mon 11:43:41 PM -33.9085 152.4163 91° East 445 512 18,900 1,467 Climbing Aus ATC (RADAR)
Mon 11:44:02 PM -33.9080 152.4570 91° East 459 528 19,000 1,277 Climbing FlightAware ADS-B
Mon 11:44:28 PM -33.9089 152.5372 91° East 454 522 19,900 1,200 Climbing Aus ATC (RADAR)
Mon 11:44:42 PM -33.9090 152.5620 91° East 466 536 19,800 1,029 Descending FlightAware ADS-B
Mon 11:45:03 PM -33.9103 152.6283 91° East 461 531 20,500 1,029 Climbing Aus ATC (RADAR)
Mon 11:45:17 PM -33.9100 152.6500 91° East 474 545 20,400 529 Descending FlightAware ADS-B
Mon 11:45:37 PM -33.9030 152.7050 81° East 471 542 20,800 1,200 Climbing FlightAware ADS-B
Mon 11:45:52 PM -33.8890 152.7410 65° Northeast 471 542 21,100 1,091 Climbing FlightAware ADS-B
Mon 11:46:32 PM -33.8390 152.8250 54° Northeast 469 540 21,800 1,059 Climbing FlightAware ADS-B
Mon 11:47:17 PM -33.7800 152.9200 53° Northeast 482 555 22,600 1,324 Climbing FlightAware ADS-B
Mon 11:47:40 PM -33.7416 152.9822 53° Northeast 475 547 23,300 1,050 Climbing Aus ATC (RADAR)
Mon 11:47:57 PM -33.7290 153.0030 53° Northeast 479 551 23,300 1,371 Level FlightAware ADS-B
Mon 11:48:15 PM -33.6964 153.0586 53° Northeast 474 545 24,100 1,029 Climbing Aus ATC (RADAR)
Mon 11:48:32 PM -33.6840 153.0800 53° Northeast 484 557 23,900 655 Descending FlightAware ADS-B
Mon 11:49:10 PM -33.6234 153.1814 53° Northeast 485 558 24,700 667 Climbing Aus ATC (RADAR)
Mon 11:49:17 PM -33.6190 153.1890 53° Northeast 499 574 24,400 811 Descending FlightAware ADS-B
Mon 11:49:47 PM -33.5722 153.2654 53° Northeast 503 579 25,200 1,000 Climbing Aus ATC (RADAR)
Mon 11:50:17 PM -33.5420 153.3120 53° Northeast 503 579 25,400 1,132 Climbing FlightAware ADS-B
Mon 11:50:40 PM -33.4980 153.3824 53° Northeast 495 570 26,200 1,500 Climbing Aus ATC (RADAR)
Mon 11:50:57 PM -33.4750 153.4219 55° Northeast 504 580 26,400  Climbing Aus ATC (RADAR)
Mon 11:51:02 PM -33.4750 153.4210 55° Northeast 507 583 26,200 400 Descending FlightAware ADS-B
Mon 11:51:42 PM -33.4180 153.5170 55° Northeast 512 589 26,700 918 Climbing FlightAware ADS-B
Mon 11:52:27 PM -33.3502 153.6289 55° Northeast 515 593 27,500 655 Climbing Aus ATC (RADAR)
Mon 11:52:37 PM -33.3460 153.6350 55° Northeast 516 594 27,300 400 Descending FlightAware ADS-B
Mon 11:53:12 PM -33.2980 153.7140 54° Northeast 518 596 27,800 1,200 Climbing FlightAware ADS-B
Mon 11:54:17 PM -33.2100 153.8560 53° Northeast 502 578 29,300 1,080 Climbing FlightAware ADS-B
Mon 11:54:52 PM -33.1560 153.9440 53° Northeast 512 589 29,600 1,105 Climbing FlightAware ADS-B
Mon 11:54:55 PM -33.1443 153.9624 53° Northeast 494 568 30,000 480 Climbing Aus ATC (RADAR)
Mon 11:55:42 PM -33.0940 154.0560 57° Northeast 519 597 30,000 652 Level FlightAware ADS-B
Mon 11:55:47 PM -33.0970 154.0810 98° East 30,800 1,333 Climbing FlightAware ADS-B
Mon 11:56:27 PM -33.0690 154.1940 74° East 527 606 31,000 133 Climbing FlightAware ADS-B
Mon 11:57:17 PM -33.0260 154.3170 67° East 534 615 31,000 133 Level FlightAware ADS-B
Mon 11:57:57 PM -32.9553 154.4335 67° East 517 595 31,200  Climbing Aus ATC (RADAR)
Mon 11:57:57 PM -32.9680 154.4190 67° East 530 610 31,000  Descending FlightAware ADS-B
Mon 11:58:17 PM -32.9228 154.4780 67° East 526 605 31,200  Climbing Aus ATC (RADAR)
Mon 11:58:42 PM -32.8950 154.5190 67° East 534 615 31,000 525 Descending FlightAware ADS-B
Mon 11:59:37 PM -32.8015 154.6632 67° East 532 612 31,900 655 Climbing Aus ATC (RADAR)
Mon 11:59:37 PM -32.8080 154.6520 67° East 532 612 31,600 600 Descending FlightAware ADS-B
Tue 12:00:27 AM -32.7239 154.7790 67° East 538 619 32,400 600 Climbing Aus ATC (RADAR)
Tue 12:00:27 AM -32.7330 154.7660 67° East 539 620 32,100 -400 Descending FlightAware ADS-B
Tue 12:01:12 AM -32.6690 154.8600 51° Northeast 539 620 32,100  Level FlightAware ADS-B
Tue 12:01:52 AM -32.6150 154.9380 51° Northeast 539 620 32,100 635 Level FlightAware ADS-B
Tue 12:02:37 AM -32.5300 155.0700 53° Northeast 534 615 33,000 957 Climbing FlightAware ADS-B
Tue 12:03:01 AM -32.4859 155.1339 53° Northeast 534 615 33,200  Climbing Aus ATC (RADAR)
Tue 12:03:32 AM -32.4480 155.1910 53° Northeast 536 617 33,000 -158 Descending FlightAware ADS-B
Tue 12:04:17 AM -32.3810 155.2920 52° Northeast 535 616 33,000 188 Level FlightAware ADS-B
Tue 12:04:36 AM -32.3393 155.3509 52° Northeast 535 616 33,200  Climbing Aus ATC (RADAR)
Tue 12:04:57 AM -32.3280 155.3680 52° Northeast 534 615 33,000 -197 Descending FlightAware ADS-B
Tue 12:05:37 AM -32.2760 155.4450 51° Northeast 534 615 33,000 174 Level FlightAware ADS-B
Tue 12:06:06 AM -32.2014 155.5548 51° Northeast 532 612 33,200  Climbing Aus ATC (RADAR)
Tue 12:06:22 AM -32.1900 155.5720 51° Northeast 532 612 33,000 -197 Descending FlightAware ADS-B
Tue 12:07:07 AM -32.1250 155.6680 51° Northeast 531 611 33,000 162 Level FlightAware ADS-B
Tue 12:07:36 AM -32.0628 155.7573 51° Northeast 529 609 33,200  Climbing Aus ATC (RADAR)
Tue 12:07:42 AM -32.0690 155.7500 51° Northeast 532 612 33,000  Descending FlightAware ADS-B
Tue 12:08:06 AM -32.0170 155.8248 51° Northeast 528 608 33,200 308 Climbing Aus ATC (RADAR)
Tue 12:08:21 AM -31.9958 155.8583 53° Northeast 525 604 33,200 -750 Level Aus ATC (RADAR)
Tue 12:08:22 AM -32.0160 155.8270 53° Northeast 532 612 33,000  Descending FlightAware ADS-B
Tue 12:08:46 AM -31.9580 155.9140 53° Northeast 525 604 33,200  Climbing Aus ATC (RADAR)
Tue 12:09:12 AM -31.9500 155.9230 53° Northeast 532 612 33,000 -182 Descending FlightAware ADS-B
Tue 12:09:52 AM -31.8980 156.0000 52° Northeast 532 612 33,000  Level FlightAware ADS-B
Tue 12:10:32 AM -31.8450 156.0760 51° Northeast 532 612 33,000  Level FlightAware ADS-B
Tue 12:11:12 AM -31.7920 156.1530 51° Northeast 532 612 33,000  Level FlightAware ADS-B
Tue 12:11:52 AM -31.7400 156.2290 51° Northeast 532 612 33,000  Level FlightAware ADS-B
Tue 12:12:42 AM -31.6740 156.3250 51° Northeast 532 612 33,000  Level FlightAware ADS-B
Tue 12:13:22 AM -31.6210 156.4010 51° Northeast 532 612 33,000  Level FlightAware ADS-B
Tue 12:13:46 AM -31.4590 156.6340 230° Southwest 33,000  Level Aus ATC (Calculated)
Tue 12:14:02 AM -31.5690 156.4780 52° Northeast 532 612 33,000  Level FlightAware ADS-B
Tue 12:14:42 AM -31.5160 156.5540 52° Northeast 532 612 33,000  Level FlightAware ADS-B
Tue 12:14:55 AM -31.3457 156.7956 230° Southwest 33,000  Level Aus ATC (Calculated)
Tue 12:14:55 AM -31.3457 156.7956 230° Southwest 33,000  Level Aus ATC (Calculated)
Tue 12:15:22 AM -31.4630 156.6300 52° Northeast 532 612 33,000  Level FlightAware ADS-B
Tue 12:16:12 AM -31.3970 156.7250 51° Northeast 532 612 33,000  Level FlightAware ADS-B
Tue 12:16:52 AM -31.3450 156.8020 52° Northeast 532 612 33,000 13 Level FlightAware ADS-B
Tue 12:18:45 AM -30.9482 157.3572 61° Northeast 33,000 13 Level Aus ATC (Calculated)
Tue 12:20:00 AM -31.0096 157.1509 251° West  Level FlightAware Approximate
Tue 12:20:25 AM -30.7679 157.6094 61° Northeast 33,000  Level Aus ATC (Calculated)
Tue 12:22:00 AM -30.8952 157.3763 237° Southwest  Level FlightAware Approximate
Tue 12:23:00 AM -30.9353 157.2776 51° Northeast  Level FlightAware Approximate
Tue 12:23:45 AM -30.4398 158.0641 60° Northeast 33,000  Level Aus ATC (Calculated)
Tue 12:24:00 AM -30.8416 157.4138 51° Northeast  Level FlightAware Approximate
Tue 12:25:00 AM -30.3191 158.2300 50° Northeast  Level FlightAware Approximate
Tue 12:26:00 AM -30.2224 158.3625 50° Northeast  Level FlightAware Approximate
Tue 12:27:00 AM -30.1255 158.4947 50° Northeast  Level FlightAware Approximate
Tue 12:28:00 AM -30.0286 158.6266 50° Northeast  Level FlightAware Approximate
Tue 12:28:44 AM -29.9481 158.7358 60° Northeast 33,000  Level Aus ATC (Calculated)
Tue 12:29:00 AM -29.9315 158.7583 50° Northeast  Level FlightAware Approximate
Tue 12:30:00 AM -29.8249 158.9023 50° Northeast  Level FlightAware Approximate
Tue 12:31:00 AM -29.7276 159.0334 49° Northeast  Level FlightAware Approximate
Tue 12:32:00 AM -29.6301 159.1643 49° Northeast  Level FlightAware Approximate
Tue 12:33:00 AM -29.5324 159.2949 49° Northeast  Level FlightAware Approximate
Tue 12:33:44 AM -29.4163 159.4498 60° Northeast 33,000  Level Aus ATC (Calculated)
Tue 12:34:00 AM -29.4347 159.4253 49° Northeast  Level FlightAware Approximate
Tue 12:35:00 AM -29.2922 159.6145 49° Northeast  Level FlightAware Approximate
Tue 12:35:52 AM -29.2084 159.7254 60° Northeast 33,000  Level Aus ATC (Calculated)
Tue 12:36:00 AM -29.1942 159.7443 49° Northeast  Level FlightAware Approximate
Tue 12:37:00 AM -29.0972 159.8723 49° Northeast  Level FlightAware Approximate
Tue 12:37:13 AM -29.1043 159.8629 60° Northeast 33,000  Level Aus ATC (Calculated)
Tue 12:38:00 AM -28.9988 160.0015 49° Northeast  Level FlightAware Approximate
Tue 12:38:58 AM -28.9256 160.1129 60° Northeast 35,000  Level Aus ATC (Calculated)
Tue 12:39:00 AM -28.9289 160.0932 49° Northeast  Level FlightAware Approximate
Tue 12:40:00 AM -29.0187 159.9715 233° Southwest  Level FlightAware Approximate
Tue 12:41:00 AM -28.9286 160.1083 53° Northeast  Level FlightAware Approximate
Tue 12:42:00 AM -28.9652 160.0488 51° Northeast  Level FlightAware Approximate
Tue 12:42:48 AM -28.5389 160.6486 60° Northeast 35,000  Level Aus ATC (Calculated)
Tue 12:43:00 AM -28.8704 160.1813 51° Northeast  Level FlightAware Approximate
Tue 12:43:26 AM -28.4847 160.7232 60° Northeast 35,000  Level Aus ATC (Calculated)
Tue 12:45:00 AM -28.3349 160.9286 50° Northeast  Level FlightAware Approximate
Tue 12:45:26 AM -28.2741 161.0117 60° Northeast 35,000  Level Aus ATC (Calculated)
Tue 12:46:00 AM -28.2391 161.0594 50° Northeast  Level FlightAware Approximate
Tue 12:47:00 AM -28.1239 161.2162 50° Northeast  Level FlightAware Approximate
Tue 12:47:48 AM -28.0431 161.3259 60° Northeast 35,000  Level Aus ATC (Calculated)
Tue 12:48:00 AM -28.0279 161.3465 50° Northeast  Level FlightAware Approximate
Tue 12:49:00 AM -27.9277 161.4820 50° Northeast  Level FlightAware Approximate
Tue 12:49:03 AM -27.9259 161.4845 60° Northeast 35,000  Level Aus ATC (Calculated)
Tue 12:49:42 AM -27.8550 161.5801 60° Northeast 35,000 Level Aus ATC (Calculated)
Tue 12:51:00 AM -27.7297 161.7486 50° Northeast  Level FlightAware Approximate
Tue 12:51:41 AM -27.6552 161.8484 60° Northeast 35,000  Level Aus ATC (Calculated)
Tue 12:52:03 AM -27.6010 161.9209 60° Northeast 35,000 Level Aus ATC (Calculated)
Tue 12:53:00 AM -27.5279 162.0184 50° Northeast  Level FlightAware Approximate
Tue 12:54:00 AM -27.4123 162.1723 50° Northeast  Level FlightAware Approximate
Tue 12:55:00 AM -27.3154 162.3009 50° Northeast  Level FlightAware Approximate
Tue 12:56:00 AM -27.2183 162.4292 50° Northeast  Level FlightAware Approximate
Tue 12:56:29 AM -27.1421 162.5298 59° Northeast 35,000  Level Aus ATC (Calculated)
Tue 12:56:29 AM -27.1421 162.5298 59° Northeast 35,000 Level Aus ATC (Calculated)
Tue 12:58:00 AM -26.9945 162.7238 50° Northeast  Level FlightAware Approximate
Tue 12:59:00 AM -26.8971 162.8514 49° Northeast  Level FlightAware Approximate
Tue 01:00:00 AM -26.7995 162.9789 49° Northeast  Level FlightAware Approximate
Tue 01:01:00 AM -26.7019 163.1060 50° Northeast  Level FlightAware Approximate
Tue 01:02:00 AM -26.7607 163.0292 49° Northeast  Level FlightAware Approximate
Tue 01:03:00 AM -26.6625 163.1558 49° Northeast  Level FlightAware Approximate
Tue 01:04:00 AM -26.5641 163.2821 49° Northeast  Level FlightAware Approximate
Tue 01:05:00 AM -26.4656 163.4083 49° Northeast  Level FlightAware Approximate
Tue 01:06:00 AM -26.3671 163.5342 49° Northeast  Level FlightAware Approximate
Tue 01:07:00 AM -26.2684 163.6599 49° Northeast  Level FlightAware Approximate
Tue 01:08:00 AM -26.1696 163.7854 49° Northeast  Level FlightAware Approximate
Tue 01:09:00 AM -26.0707 163.9107 49° Northeast  Level FlightAware Approximate
Tue 01:10:00 AM -25.9755 164.0391 55° Northeast  Level FlightAware Approximate
Tue 01:11:00 AM -25.8897 164.1757 55° Northeast  Level FlightAware Approximate
Tue 01:12:00 AM -25.8039 164.3121 55° Northeast  Level FlightAware Approximate
Tue 01:13:00 AM -25.7179 164.4483 55° Northeast  Level FlightAware Approximate
Tue 01:14:00 AM -25.6318 164.5843 55° Northeast  Level FlightAware Approximate
Tue 01:15:00 AM -25.5455 164.7201 55° Northeast  Level FlightAware Approximate
Tue 01:16:00 AM -25.4592 164.8557 55° Northeast  Level FlightAware Approximate
Tue 01:17:00 AM -25.3727 164.9911 55° Northeast  Level FlightAware Approximate
Tue 01:18:00 AM -25.2861 165.1263 55° Northeast  Level FlightAware Approximate
Tue 01:19:00 AM -25.1993 165.2613 55° Northeast  Level FlightAware Approximate
Tue 01:20:00 AM -25.1125 165.3961 55° Northeast  Level FlightAware Approximate
Tue 01:21:00 AM -25.0255 165.5307 55° Northeast  Level FlightAware Approximate
Tue 01:22:00 AM -24.9384 165.6652 54° Northeast  Level FlightAware Approximate
Tue 01:23:00 AM -24.8512 165.7994 54° Northeast  Level FlightAware Approximate
Tue 01:24:00 AM -24.7638 165.9335 54° Northeast  Level FlightAware Approximate
Tue 01:25:00 AM -24.6764 166.0674 54° Northeast  Level FlightAware Approximate
Tue 01:26:00 AM -24.5888 166.2010 54° Northeast  Level FlightAware Approximate
Tue 01:27:00 AM -24.5011 166.3345 54° Northeast  Level FlightAware Approximate
Tue 01:28:00 AM -24.4133 166.4679 54° Northeast  Level FlightAware Approximate
Tue 01:29:00 AM -24.3253 166.6010 54° Northeast  Level FlightAware Approximate
Tue 01:30:00 AM -24.2373 166.7339 54° Northeast  Level FlightAware Approximate
Tue 01:31:00 AM -24.1491 166.8667 54° Northeast  Level FlightAware Approximate
Tue 01:32:00 AM -24.0609 166.9993 54° Northeast  Level FlightAware Approximate
Tue 01:33:00 AM -23.9725 167.1317 54° Northeast  Level FlightAware Approximate
Tue 01:34:00 AM -23.8839 167.2639 54° Northeast  Level FlightAware Approximate
Tue 01:35:00 AM -23.7953 167.3959 54° Northeast  Level FlightAware Approximate
Tue 01:36:00 AM -23.7066 167.5277 54° Northeast  Level FlightAware Approximate
Tue 01:37:00 AM -23.6178 167.6594 54° Northeast  Level FlightAware Approximate
Tue 01:38:00 AM -23.5288 167.7909 54° Northeast  Level FlightAware Approximate
Tue 01:39:00 AM -23.4398 167.9222 54° Northeast  Level FlightAware Approximate
Tue 01:40:00 AM -23.3506 168.0533 53° Northeast  Level FlightAware Approximate
Tue 01:41:00 AM -23.2613 168.1843 53° Northeast  Level FlightAware Approximate
Tue 01:42:00 AM -23.1719 168.3151 53° Northeast  Level FlightAware Approximate
Tue 01:43:00 AM -23.0824 168.4457 53° Northeast  Level FlightAware Approximate
Tue 01:44:00 AM -22.9928 168.5761 53° Northeast  Level FlightAware Approximate
Tue 01:45:00 AM -22.9031 168.7064 53° Northeast  Level FlightAware Approximate
Tue 01:46:00 AM -22.8133 168.8365 53° Northeast  Level FlightAware Approximate
Tue 01:47:00 AM -22.7234 168.9664 53° Northeast  Level FlightAware Approximate
Tue 01:48:00 AM -22.6333 169.0962 53° Northeast  Level FlightAware Approximate
Tue 01:49:00 AM -22.5432 169.2257 53° Northeast  Level FlightAware Approximate
Tue 01:50:00 AM -22.4529 169.3551 53° Northeast  Level FlightAware Approximate
Tue 01:51:00 AM -22.3626 169.4844 53° Northeast  Level FlightAware Approximate
Tue 01:52:00 AM -22.2722 169.6135 53° Northeast  Level FlightAware Approximate
Tue 01:53:00 AM -22.1816 169.7424 53° Northeast  Level FlightAware Approximate
Tue 01:54:00 AM -22.0910 169.8711 53° Northeast  Level FlightAware Approximate
Tue 01:55:00 AM -22.0002 169.9997 53° Northeast  Level FlightAware Approximate
Tue 01:56:00 AM -21.9213 170.1370 58° Northeast  Level FlightAware Approximate
Tue 01:57:00 AM -21.8423 170.2742 58° Northeast  Level FlightAware Approximate
Tue 01:58:00 AM -21.7632 170.4111 58° Northeast  Level FlightAware Approximate
Tue 01:59:00 AM -21.6840 170.5480 58° Northeast  Level FlightAware Approximate
Tue 02:00:00 AM -21.6047 170.6847 58° Northeast  Level FlightAware Approximate
Tue 02:01:00 AM -21.5253 170.8212 58° Northeast  Level FlightAware Approximate
Tue 02:02:00 AM -21.4457 170.9577 58° Northeast  Level FlightAware Approximate
Tue 02:03:00 AM -21.3661 171.0939 58° Northeast  Level FlightAware Approximate
Tue 02:04:00 AM -21.2863 171.2300 58° Northeast  Level FlightAware Approximate
Tue 02:05:00 AM -21.2064 171.3660 58° Northeast  Level FlightAware Approximate
Tue 02:06:00 AM -21.1264 171.5018 58° Northeast  Level FlightAware Approximate
Tue 02:07:00 AM -21.0464 171.6375 58° Northeast  Level FlightAware Approximate
Tue 02:08:00 AM -20.9662 171.7730 58° Northeast  Level FlightAware Approximate
Tue 02:09:00 AM -20.8858 171.9083 58° Northeast  Level FlightAware Approximate
Tue 02:10:00 AM -20.8054 172.0436 58° Northeast  Level FlightAware Approximate
Tue 02:11:00 AM -20.7249 172.1786 58° Northeast  Level FlightAware Approximate
Tue 02:12:00 AM -20.6443 172.3136 57° Northeast  Level FlightAware Approximate
Tue 02:13:00 AM -20.5636 172.4484 57° Northeast  Level FlightAware Approximate
Tue 02:14:00 AM -20.4827 172.5831 57° Northeast  Level FlightAware Approximate
Tue 02:15:00 AM -20.4018 172.7176 57° Northeast  Level FlightAware Approximate
Tue 02:16:00 AM -20.3207 172.8519 57° Northeast  Level FlightAware Approximate
Tue 02:17:00 AM -20.2396 172.9862 57° Northeast  Level FlightAware Approximate
Tue 02:18:00 AM -20.1584 173.1203 57° Northeast  Level FlightAware Approximate
Tue 02:19:00 AM -20.0770 173.2542 57° Northeast  Level FlightAware Approximate
Tue 02:20:00 AM -19.9956 173.3880 57° Northeast  Level FlightAware Approximate
Tue 02:21:00 AM -19.9140 173.5217 57° Northeast  Level FlightAware Approximate
Tue 02:22:00 AM -19.8324 173.6552 57° Northeast  Level FlightAware Approximate
Tue 02:23:00 AM -19.7506 173.7886 57° Northeast  Level FlightAware Approximate
Tue 02:24:00 AM -19.6688 173.9219 57° Northeast  Level FlightAware Approximate
Tue 02:25:00 AM -19.5868 174.0550 57° Northeast  Level FlightAware Approximate
Tue 02:26:00 AM -19.5048 174.1880 57° Northeast  Level FlightAware Approximate
Tue 02:27:00 AM -19.4227 174.3209 57° Northeast  Level FlightAware Approximate
Tue 02:28:00 AM -19.3404 174.4536 57° Northeast  Level FlightAware Approximate
Tue 02:29:00 AM -19.2581 174.5862 57° Northeast  Level FlightAware Approximate
Tue 02:30:00 AM -19.1757 174.7186 57° Northeast  Level FlightAware Approximate
Tue 02:31:00 AM -19.0932 174.8509 57° Northeast  Level FlightAware Approximate
Tue 02:32:00 AM -19.0106 174.9831 57° Northeast  Level FlightAware Approximate
Tue 02:33:00 AM -18.9319 175.1179 59° Northeast  Level FlightAware Approximate
Tue 02:34:00 AM -18.8537 175.2530 59° Northeast  Level FlightAware Approximate
Tue 02:35:00 AM -18.7754 175.3879 59° Northeast  Level FlightAware Approximate
Tue 02:36:00 AM -18.6970 175.5227 58° Northeast  Level FlightAware Approximate
Tue 02:37:00 AM -18.6186 175.6573 58° Northeast  Level FlightAware Approximate
Tue 02:38:00 AM -18.5400 175.7919 58° Northeast  Level FlightAware Approximate
Tue 02:39:00 AM -18.4613 175.9263 58° Northeast  Level FlightAware Approximate
Tue 02:40:00 AM -18.3826 176.0606 58° Northeast  Level FlightAware Approximate
Tue 02:41:00 AM -18.3037 176.1948 58° Northeast  Level FlightAware Approximate
Tue 02:42:00 AM -18.2248 176.3288 58° Northeast  Level FlightAware Approximate
Tue 02:43:00 AM -18.1457 176.4628 58° Northeast  Level FlightAware Approximate
Tue 02:44:00 AM -18.0666 176.5966 58° Northeast  Level FlightAware Approximate
Tue 02:45:00 AM -17.9874 176.7303 58° Northeast  Level FlightAware Approximate
Tue 02:46:00 AM -17.9081 176.8638 58° Northeast  Level FlightAware Approximate
Tue 02:47:00 AM -17.8286 176.9973 58° Northeast  Level FlightAware Approximate
Tue 02:48:00 AM -17.7491 177.1306 58° Northeast  Level FlightAware Approximate
Tue 02:49:00 AM -17.6696 177.2638 58° Northeast  Level FlightAware Approximate
Tue 02:50:00 AM -17.5899 177.3969 58° Northeast  Level FlightAware Approximate
Tue 02:51:00 AM -17.5101 177.5299 58° Northeast  Level FlightAware Approximate
Tue 02:52:00 AM -17.4303 177.6627 58° Northeast  Level FlightAware Approximate
Tue 02:53:00 AM -17.3503 177.7955 58° Northeast  Level FlightAware Approximate
Tue 02:54:00 AM -17.2703 177.9281 58° Northeast  Level FlightAware Approximate
Tue 02:55:00 AM -17.1902 178.0606 58° Northeast  Level FlightAware Approximate
Tue 02:56:00 AM -17.1100 178.1930 58° Northeast  Level FlightAware Approximate
Tue 02:57:00 AM -17.0297 178.3253 58° Northeast  Level FlightAware Approximate
Tue 02:58:00 AM -16.9493 178.4575 58° Northeast  Level FlightAware Approximate
Tue 02:59:00 AM -16.8689 178.5895 58° Northeast  Level FlightAware Approximate
Tue 03:00:00 AM -16.7883 178.7215 57° Northeast  Level FlightAware Approximate
Tue 03:01:00 AM -16.7077 178.8533 57° Northeast  Level FlightAware Approximate
Tue 03:02:00 AM -16.6270 178.9850 57° Northeast  Level FlightAware Approximate
Tue 03:03:00 AM -16.5462 179.1166 57° Northeast  Level FlightAware Approximate
Tue 03:04:00 AM -16.4653 179.2481 57° Northeast  Level FlightAware Approximate
Tue 03:05:00 AM -16.3843 179.3795 57° Northeast  Level FlightAware Approximate
Tue 03:06:00 AM -16.3033 179.5108 57° Northeast  Level FlightAware Approximate
Tue 03:07:00 AM -16.2222 179.6420 57° Northeast  Level FlightAware Approximate
Tue 03:08:00 AM -16.1410 179.7730 57° Northeast  Level FlightAware Approximate
Tue 03:09:00 AM -16.0597 179.9040 57° Northeast  Level FlightAware Approximate
Tue 03:10:00 AM -15.9778 -179.9655 56° Northeast  Level FlightAware Approximate
Tue 03:11:00 AM -15.8946 -179.8360 56° Northeast  Level FlightAware Approximate
Tue 03:12:00 AM -15.8112 -179.7066 56° Northeast  Level FlightAware Approximate
Tue 03:13:00 AM -15.7278 -179.5774 56° Northeast  Level FlightAware Approximate
Tue 03:14:00 AM -15.6442 -179.4482 56° Northeast  Level FlightAware Approximate
Tue 03:15:00 AM -15.5607 -179.3192 56° Northeast  Level FlightAware Approximate
Tue 03:16:00 AM -15.4770 -179.1902 56° Northeast  Level FlightAware Approximate
Tue 03:17:00 AM -15.3933 -179.0614 56° Northeast  Level FlightAware Approximate
Tue 03:18:00 AM -15.3095 -178.9326 56° Northeast  Level FlightAware Approximate
Tue 03:19:00 AM -15.2256 -178.8040 56° Northeast  Level FlightAware Approximate
Tue 03:20:00 AM -15.1416 -178.6754 56° Northeast  Level FlightAware Approximate
Tue 03:21:00 AM -15.0576 -178.5470 56° Northeast  Level FlightAware Approximate
Tue 03:22:00 AM -14.9735 -178.4187 56° Northeast  Level FlightAware Approximate
Tue 03:23:00 AM -14.8893 -178.2904 56° Northeast  Level FlightAware Approximate
Tue 03:24:00 AM -14.8051 -178.1623 56° Northeast  Level FlightAware Approximate
Tue 03:25:00 AM -14.7208 -178.0343 56° Northeast  Level FlightAware Approximate
Tue 03:26:00 AM -14.6364 -177.9063 56° Northeast  Level FlightAware Approximate
Tue 03:27:00 AM -14.5519 -177.7785 56° Northeast  Level FlightAware Approximate
Tue 03:28:00 AM -14.4674 -177.6507 56° Northeast  Level FlightAware Approximate
Tue 03:29:00 AM -14.3828 -177.5231 56° Northeast  Level FlightAware Approximate
Tue 03:30:00 AM -14.2982 -177.3956 56° Northeast  Level FlightAware Approximate
Tue 03:31:00 AM -14.2134 -177.2681 56° Northeast  Level FlightAware Approximate
Tue 03:32:00 AM -14.1286 -177.1407 56° Northeast  Level FlightAware Approximate
Tue 03:33:00 AM -14.0438 -177.0135 56° Northeast  Level FlightAware Approximate
Tue 03:34:00 AM -13.9588 -176.8863 55° Northeast  Level FlightAware Approximate
Tue 03:35:00 AM -13.8738 -176.7593 55° Northeast  Level FlightAware Approximate
Tue 03:36:00 AM -13.7888 -176.6323 55° Northeast  Level FlightAware Approximate
Tue 03:37:00 AM -13.7037 -176.5054 55° Northeast  Level FlightAware Approximate
Tue 03:38:00 AM -13.6185 -176.3786 55° Northeast  Level FlightAware Approximate
Tue 03:39:00 AM -13.5332 -176.2519 55° Northeast  Level FlightAware Approximate
Tue 03:40:00 AM -13.4479 -176.1253 55° Northeast  Level FlightAware Approximate
Tue 03:41:00 AM -13.3625 -175.9988 55° Northeast  Level FlightAware Approximate
Tue 03:42:00 AM -13.2771 -175.8723 55° Northeast  Level FlightAware Approximate
Tue 03:43:00 AM -13.1916 -175.7460 55° Northeast  Level FlightAware Approximate
Tue 03:44:00 AM -13.1060 -175.6198 55° Northeast  Level FlightAware Approximate
Tue 03:45:00 AM -13.0204 -175.4936 55° Northeast  Level FlightAware Approximate
Tue 03:46:00 AM -12.9347 -175.3675 55° Northeast  Level FlightAware Approximate
Tue 03:47:00 AM -12.8489 -175.2415 55° Northeast  Level FlightAware Approximate
Tue 03:48:00 AM -12.7631 -175.1156 55° Northeast  Level FlightAware Approximate
Tue 03:49:00 AM -12.6772 -174.9898 55° Northeast  Level FlightAware Approximate
Tue 03:50:00 AM -12.5913 -174.8640 55° Northeast  Level FlightAware Approximate
Tue 03:51:00 AM -12.5053 -174.7384 55° Northeast  Level FlightAware Approximate
Tue 03:52:00 AM -12.4193 -174.6128 55° Northeast  Level FlightAware Approximate
Tue 03:53:00 AM -12.3332 -174.4873 55° Northeast  Level FlightAware Approximate
Tue 03:54:00 AM -12.2470 -174.3619 55° Northeast  Level FlightAware Approximate
Tue 03:55:00 AM -12.1608 -174.2366 55° Northeast  Level FlightAware Approximate
Tue 03:56:00 AM -12.0745 -174.1114 55° Northeast  Level FlightAware Approximate
Tue 03:57:00 AM -11.9885 -173.9861 50° Northeast  Level FlightAware Approximate
Tue 03:58:00 AM -11.8914 -173.8694 50° Northeast  Level FlightAware Approximate
Tue 03:59:00 AM -11.7944 -173.7529 50° Northeast  Level FlightAware Approximate
Tue 04:00:00 AM -11.6972 -173.6364 50° Northeast  Level FlightAware Approximate
Tue 04:01:00 AM -11.6001 -173.5200 50° Northeast  Level FlightAware Approximate
Tue 04:02:00 AM -11.5029 -173.4037 50° Northeast  Level FlightAware Approximate
Tue 04:03:00 AM -11.4056 -173.2874 50° Northeast  Level FlightAware Approximate
Tue 04:04:00 AM -11.3175 -173.1823 50° Northeast  Level FlightAware Approximate
Tue 04:05:00 AM -11.2294 -173.0772 49° Northeast  Level FlightAware Approximate
Tue 04:06:00 AM -11.1412 -172.9721 49° Northeast  Level FlightAware Approximate
Tue 04:07:00 AM -11.0530 -172.8672 49° Northeast  Level FlightAware Approximate
Tue 04:08:00 AM -10.9648 -172.7623 49° Northeast  Level FlightAware Approximate
Tue 04:09:00 AM -10.8765 -172.6574 49° Northeast  Level FlightAware Approximate
Tue 04:10:00 AM -10.7882 -172.5526 49° Northeast  Level FlightAware Approximate
Tue 04:11:00 AM -10.6999 -172.4479 49° Northeast  Level FlightAware Approximate
Tue 04:12:00 AM -10.6115 -172.3432 49° Northeast  Level FlightAware Approximate
Tue 04:13:00 AM -10.5231 -172.2386 49° Northeast  Level FlightAware Approximate
Tue 04:14:00 AM -10.4346 -172.1341 49° Northeast  Level FlightAware Approximate
Tue 04:15:00 AM -10.3461 -172.0296 49° Northeast  Level FlightAware Approximate
Tue 04:16:00 AM -10.2576 -171.9252 49° Northeast  Level FlightAware Approximate
Tue 04:17:00 AM -10.1691 -171.8208 49° Northeast  Level FlightAware Approximate
Tue 04:18:00 AM -10.0805 -171.7165 49° Northeast  Level FlightAware Approximate
Tue 04:19:00 AM -9.9919 -171.6123 49° Northeast  Level FlightAware Approximate
Tue 04:20:00 AM -9.9032 -171.5081 49° Northeast  Level FlightAware Approximate
Tue 04:21:00 AM -9.8145 -171.4039 49° Northeast  Level FlightAware Approximate
Tue 04:22:00 AM -9.7258 -171.2999 49° Northeast  Level FlightAware Approximate
Tue 04:23:00 AM -9.6371 -171.1958 49° Northeast  Level FlightAware Approximate
Tue 04:24:00 AM -9.5483 -171.0919 49° Northeast  Level FlightAware Approximate
Tue 04:25:00 AM -9.4595 -170.9879 49° Northeast  Level FlightAware Approximate
Tue 04:26:00 AM -9.3707 -170.8841 49° Northeast  Level FlightAware Approximate
Tue 04:27:00 AM -9.2818 -170.7803 49° Northeast  Level FlightAware Approximate
Tue 04:28:00 AM -9.1929 -170.6765 49° Northeast  Level FlightAware Approximate
Tue 04:29:00 AM -9.1040 -170.5728 49° Northeast  Level FlightAware Approximate
Tue 04:30:00 AM -9.0150 -170.4691 49° Northeast  Level FlightAware Approximate
Tue 04:31:00 AM -8.9261 -170.3656 49° Northeast  Level FlightAware Approximate
Tue 04:32:00 AM -8.8371 -170.2620 49° Northeast  Level FlightAware Approximate
Tue 04:33:00 AM -8.7480 -170.1585 49° Northeast  Level FlightAware Approximate
Tue 04:34:00 AM -8.6589 -170.0551 49° Northeast  Level FlightAware Approximate
Tue 04:35:00 AM -8.5698 -169.9516 49° Northeast  Level FlightAware Approximate
Tue 04:36:00 AM -8.4807 -169.8483 49° Northeast  Level FlightAware Approximate
Tue 04:37:00 AM -8.3916 -169.7450 49° Northeast  Level FlightAware Approximate
Tue 04:38:00 AM -8.3024 -169.6417 49° Northeast  Level FlightAware Approximate
Tue 04:39:00 AM -8.2132 -169.5385 49° Northeast  Level FlightAware Approximate
Tue 04:40:00 AM -8.1240 -169.4353 49° Northeast  Level FlightAware Approximate
Tue 04:41:00 AM -8.0347 -169.3322 49° Northeast  Level FlightAware Approximate
Tue 04:42:00 AM -7.9454 -169.2291 49° Northeast  Level FlightAware Approximate
Tue 04:43:00 AM -7.8561 -169.1261 49° Northeast  Level FlightAware Approximate
Tue 04:44:00 AM -7.7668 -169.0231 49° Northeast  Level FlightAware Approximate
Tue 04:45:00 AM -7.6774 -168.9202 49° Northeast  Level FlightAware Approximate
Tue 04:46:00 AM -7.5880 -168.8173 49° Northeast  Level FlightAware Approximate
Tue 04:47:00 AM -7.4986 -168.7144 49° Northeast  Level FlightAware Approximate
Tue 04:48:00 AM -7.4092 -168.6116 49° Northeast  Level FlightAware Approximate
Tue 04:49:00 AM -7.3197 -168.5088 49° Northeast  Level FlightAware Approximate
Tue 04:50:00 AM -7.2303 -168.4061 49° Northeast  Level FlightAware Approximate
Tue 04:51:00 AM -7.1408 -168.3034 49° Northeast  Level FlightAware Approximate
Tue 04:52:00 AM -7.0512 -168.2008 49° Northeast  Level FlightAware Approximate
Tue 04:53:00 AM -6.9617 -168.0982 49° Northeast  Level FlightAware Approximate
Tue 04:54:00 AM -6.8721 -167.9956 49° Northeast  Level FlightAware Approximate
Tue 04:55:00 AM -6.7825 -167.8931 49° Northeast  Level FlightAware Approximate
Tue 04:56:00 AM -6.6929 -167.7906 49° Northeast  Level FlightAware Approximate
Tue 04:57:00 AM -6.6021 -167.6868 49° Northeast  Level FlightAware Approximate
Tue 04:58:00 AM -6.5113 -167.5830 49° Northeast  Level FlightAware Approximate
Tue 04:59:00 AM -6.4204 -167.4792 49° Northeast  Level FlightAware Approximate
Tue 05:00:00 AM -6.3295 -167.3755 49° Northeast  Level FlightAware Approximate
Tue 05:01:00 AM -6.2386 -167.2719 49° Northeast  Level FlightAware Approximate
Tue 05:02:00 AM -6.1477 -167.1683 49° Northeast  Level FlightAware Approximate
Tue 05:03:00 AM -6.0568 -167.0647 49° Northeast  Level FlightAware Approximate
Tue 05:04:00 AM -5.9666 -166.9604 50° Northeast  Level FlightAware Approximate
Tue 05:05:00 AM -5.8778 -166.8550 50° Northeast  Level FlightAware Approximate
Tue 05:06:00 AM -5.7889 -166.7497 50° Northeast  Level FlightAware Approximate
Tue 05:07:00 AM -5.7000 -166.6443 50° Northeast  Level FlightAware Approximate
Tue 05:08:00 AM -5.6111 -166.5391 50° Northeast  Level FlightAware Approximate
Tue 05:09:00 AM -5.5222 -166.4338 50° Northeast  Level FlightAware Approximate
Tue 05:10:00 AM -5.4333 -166.3286 50° Northeast  Level FlightAware Approximate
Tue 05:11:00 AM -5.3444 -166.2234 50° Northeast  Level FlightAware Approximate
Tue 05:12:00 AM -5.2554 -166.1183 50° Northeast  Level FlightAware Approximate
Tue 05:13:00 AM -5.1664 -166.0131 50° Northeast  Level FlightAware Approximate
Tue 05:14:00 AM -5.0774 -165.9080 50° Northeast  Level FlightAware Approximate
Tue 05:15:00 AM -4.9883 -165.8030 49° Northeast  Level FlightAware Approximate
Tue 05:16:00 AM -4.8990 -165.6982 49° Northeast  Level FlightAware Approximate
Tue 05:17:00 AM -4.8096 -165.5934 49° Northeast  Level FlightAware Approximate
Tue 05:18:00 AM -4.7203 -165.4887 49° Northeast  Level FlightAware Approximate
Tue 05:18:13 AM -5.0000 -165.8167 49° Northeast 506 582 37,000  Level Oakland Oceanic (ODAPS)
Tue 05:19:00 AM -4.6309 -165.3840 49° Northeast  Level FlightAware Approximate
Tue 05:20:00 AM -4.5415 -165.2793 49° Northeast  Level FlightAware Approximate
Tue 05:21:00 AM -4.4521 -165.1747 49° Northeast  Level FlightAware Approximate
Tue 05:22:00 AM -4.3627 -165.0700 49° Northeast  Level FlightAware Approximate
Tue 05:23:00 AM -4.2732 -164.9654 49° Northeast  Level FlightAware Approximate
Tue 05:24:00 AM -4.4461 -165.1676 49° Northeast 506 582 37,000  Level FlightAware Transoceanic
Tue 05:25:00 AM -4.3537 -165.0595 49° Northeast 506 582 37,000  Level FlightAware Transoceanic
Tue 05:25:15 AM -4.3667 -165.0667 49° Northeast 509 586 37,000  Level Oakland Oceanic (ODAPS)
Tue 05:26:00 AM -4.2613 -164.9515 49° Northeast 506 582 37,000  Level FlightAware Transoceanic
Tue 05:27:00 AM -4.1689 -164.8434 49° Northeast 506 582 37,000  Level FlightAware Transoceanic
Tue 05:27:49 AM -4.1667 -164.8500 49° Northeast 509 586 37,000  Level Oakland Oceanic (ODAPS)
Tue 05:28:00 AM -4.0764 -164.7354 49° Northeast 506 582 37,000  Level FlightAware Transoceanic
Tue 05:29:00 AM -3.9840 -164.6275 49° Northeast 506 582 37,000  Level FlightAware Transoceanic
Tue 05:30:00 AM -3.8915 -164.5195 49° Northeast 506 582 37,000  Level FlightAware Transoceanic
Tue 05:31:00 AM -3.8104 -164.4178 49° Northeast 509 586 37,000  Level FlightAware Transoceanic
Tue 05:32:00 AM -3.7176 -164.3098 49° Northeast 509 586 37,000  Level FlightAware Transoceanic
Tue 05:33:00 AM -3.6249 -164.2017 49° Northeast 509 586 37,000  Level FlightAware Transoceanic
Tue 05:34:00 AM -3.5197 -164.0935 49° Northeast 509 586 37,000  Level FlightAware Transoceanic
Tue 05:35:00 AM -3.4272 -163.9855 49° Northeast 509 586 37,000  Level FlightAware Transoceanic
Tue 05:36:00 AM -3.3348 -163.8775 49° Northeast 509 586 37,000  Level FlightAware Transoceanic
Tue 05:37:00 AM -3.2423 -163.7696 49° Northeast 509 586 37,000  Level FlightAware Transoceanic
Tue 05:38:00 AM -3.1498 -163.6617 49° Northeast 509 586 37,000  Level FlightAware Transoceanic
Tue 05:39:00 AM -3.0572 -163.5538 49° Northeast 509 586 37,000  Level FlightAware Transoceanic
Tue 05:39:07 AM -3.1000 -163.6000 49° Northeast 509 586 37,000  Level Oakland Oceanic (ODAPS)
Tue 05:40:00 AM -2.9647 -163.4459 49° Northeast 509 586 37,000  Level FlightAware Transoceanic
Tue 05:41:00 AM -2.8722 -163.3380 49° Northeast 509 586 37,000  Level FlightAware Transoceanic
Tue 05:42:00 AM -2.7796 -163.2302 49° Northeast 509 586 37,000  Level FlightAware Transoceanic
Tue 05:43:00 AM -2.6871 -163.1223 49° Northeast 509 586 37,000  Level FlightAware Transoceanic
Tue 05:44:00 AM -2.5945 -163.0145 49° Northeast 509 586 37,000  Level FlightAware Transoceanic
Tue 05:45:00 AM -2.5369 -162.9445 49° Northeast 509 586 37,000  Level FlightAware Transoceanic
Tue 05:46:00 AM -2.4430 -162.8353 49° Northeast 509 586 37,000  Level FlightAware Transoceanic
Tue 05:47:00 AM -2.3491 -162.7261 49° Northeast 509 586 37,000  Level FlightAware Transoceanic
Tue 05:48:00 AM -2.2552 -162.6170 49° Northeast 509 586 37,000  Level FlightAware Transoceanic
Tue 05:49:00 AM -2.1613 -162.5078 49° Northeast 509 586 37,000  Level FlightAware Transoceanic
Tue 05:50:00 AM -2.0674 -162.3987 49° Northeast 509 586 37,000  Level FlightAware Transoceanic
Tue 05:51:00 AM -1.9735 -162.2896 49° Northeast 509 586 37,000  Level FlightAware Transoceanic
Tue 05:52:00 AM -1.8796 -162.1805 49° Northeast 509 586 37,000  Level FlightAware Transoceanic
Tue 05:52:59 AM -1.8167 -162.1000 49° Northeast 509 586 37,000  Level Oakland Oceanic (ODAPS)
Tue 05:53:00 AM -1.7856 -162.0714 49° Northeast 509 586 37,000  Level FlightAware Transoceanic
Tue 05:54:00 AM -1.6917 -161.9623 49° Northeast 509 586 37,000  Level FlightAware Transoceanic
Tue 05:55:00 AM -1.5977 -161.8532 49° Northeast 509 586 37,000  Level FlightAware Transoceanic
Tue 05:56:00 AM -1.5038 -161.7442 49° Northeast 509 586 37,000  Level FlightAware Transoceanic
Tue 05:57:00 AM -1.4098 -161.6351 49° Northeast 509 586 37,000  Level FlightAware Transoceanic
Tue 05:58:00 AM -1.3159 -161.5260 49° Northeast 509 586 37,000  Level FlightAware Transoceanic
Tue 05:59:00 AM -1.2431 -161.4366 49° Northeast 509 586 37,000  Level FlightAware Transoceanic
Tue 06:00:00 AM -1.1475 -161.3260 49° Northeast 509 586 37,000  Level FlightAware Transoceanic
Tue 06:01:00 AM -1.0519 -161.2155 49° Northeast 509 586 37,000  Level FlightAware Transoceanic
Tue 06:02:00 AM -0.9563 -161.1050 49° Northeast 509 586 37,000  Level FlightAware Transoceanic
Tue 06:03:00 AM -0.8607 -160.9945 49° Northeast 509 586 37,000  Level FlightAware Transoceanic
Tue 06:04:00 AM -0.7650 -160.8840 49° Northeast 509 586 37,000  Level FlightAware Transoceanic
Tue 06:05:00 AM -0.6694 -160.7735 49° Northeast 509 586 37,000  Level FlightAware Transoceanic
Tue 06:06:00 AM -0.5738 -160.6630 49° Northeast 509 586 37,000  Level FlightAware Transoceanic
Tue 06:06:51 AM -0.5333 -160.6167 49° Northeast 500 575 37,000  Level Oakland Oceanic (ODAPS)
Tue 06:07:00 AM -0.4782 -160.5525 49° Northeast 509 586 37,000  Level FlightAware Transoceanic
Tue 06:08:00 AM -0.3825 -160.4420 49° Northeast 509 586 37,000  Level FlightAware Transoceanic
Tue 06:09:00 AM -0.2869 -160.3315 49° Northeast 509 586 37,000  Level FlightAware Transoceanic
Tue 06:10:00 AM -0.1913 -160.2210 49° Northeast 509 586 37,000  Level FlightAware Transoceanic
Tue 06:11:00 AM -0.0956 -160.1105 49° Northeast 509 586 37,000  Level FlightAware Transoceanic
Tue 06:12:00 AM 0.0000 -160.0000 45° Northeast 509 586 37,000  Level FlightAware Transoceanic
Tue 06:12:33 AM 0.0000 -160.0000 45° Northeast 513 590 37,000  Level Oakland Oceanic (ODAPS)
Tue 06:13:00 AM 0.1000 -159.9000 45° Northeast 500 575 37,000  Level FlightAware Transoceanic
Tue 06:14:00 AM 0.2000 -159.8000 45° Northeast 500 575 37,000  Level FlightAware Transoceanic
Tue 06:15:00 AM 0.3000 -159.7000 45° Northeast 500 575 37,000  Level FlightAware Transoceanic
Tue 06:16:00 AM 0.4000 -159.6000 45° Northeast 500 575 37,000  Level FlightAware Transoceanic
Tue 06:17:00 AM 0.5000 -159.5000 45° Northeast 500 575 37,000  Level FlightAware Transoceanic
Tue 06:18:00 AM 0.6000 -159.4000 45° Northeast 513 590 37,000  Level FlightAware Transoceanic
Tue 06:19:00 AM 0.7000 -159.3000 45° Northeast 513 590 37,000  Level FlightAware Transoceanic
Tue 06:20:00 AM 0.8000 -159.2000 45° Northeast 513 590 37,000  Level FlightAware Transoceanic
Tue 06:20:43 AM 0.8333 -159.1667 45° Northeast 506 582 37,000  Level Oakland Oceanic (ODAPS)
Tue 06:21:00 AM 0.9000 -159.1000 45° Northeast 513 590 37,000  Level FlightAware Transoceanic
Tue 06:22:00 AM 1.0000 -159.0000 49° Northeast 513 590 37,000  Level FlightAware Transoceanic
Tue 06:22:22 AM 1.0000 -159.0000 49° Northeast 518 596 37,000  Level Oakland Oceanic (ODAPS)
Tue 06:23:00 AM 1.0927 -158.8929 49° Northeast 513 590 37,000  Level FlightAware Transoceanic
Tue 06:24:00 AM 1.1853 -158.7858 49° Northeast 513 590 37,000  Level FlightAware Transoceanic
Tue 06:25:00 AM 1.2779 -158.6787 49° Northeast 513 590 37,000  Level FlightAware Transoceanic
Tue 06:26:00 AM 1.3706 -158.5715 49° Northeast 513 590 37,000  Level FlightAware Transoceanic
Tue 06:27:00 AM 1.4632 -158.4644 49° Northeast 506 582 37,000  Level FlightAware Transoceanic
Tue 06:28:00 AM 1.5645 -158.3472 49° Northeast 518 596 37,000  Level FlightAware Transoceanic
Tue 06:29:00 AM 1.6586 -158.2384 49° Northeast 518 596 37,000  Level FlightAware Transoceanic
Tue 06:30:00 AM 1.7526 -158.1296 49° Northeast 518 596 37,000  Level FlightAware Transoceanic
Tue 06:31:00 AM 1.8467 -158.0207 49° Northeast 518 596 37,000  Level FlightAware Transoceanic
Tue 06:32:00 AM 1.9408 -157.9118 49° Northeast 518 596 37,000  Level FlightAware Transoceanic
Tue 06:33:00 AM 2.0348 -157.8030 49° Northeast 518 596 37,000  Level FlightAware Transoceanic
Tue 06:34:00 AM 2.1288 -157.6941 49° Northeast 518 596 37,000  Level FlightAware Transoceanic
Tue 06:34:36 AM 2.1500 -157.6667 49° Northeast 518 596 37,000  Level Oakland Oceanic (ODAPS)
Tue 06:35:00 AM 2.2229 -157.5852 49° Northeast 518 596 37,000  Level FlightAware Transoceanic
Tue 06:36:00 AM 2.3169 -157.4763 49° Northeast 518 596 37,000  Level FlightAware Transoceanic
Tue 06:37:00 AM 2.4109 -157.3674 49° Northeast 518 596 37,000  Level FlightAware Transoceanic
Tue 06:38:00 AM 2.5049 -157.2584 49° Northeast 518 596 37,000  Level FlightAware Transoceanic
Tue 06:39:00 AM 2.5989 -157.1495 49° Northeast 518 596 37,000  Level FlightAware Transoceanic
Tue 06:40:00 AM 2.7116 -157.0162 49° Northeast 518 596 37,000  Level FlightAware Transoceanic
Tue 06:41:00 AM 2.8051 -156.9077 49° Northeast 518 596 37,000  Level FlightAware Transoceanic
Tue 06:42:00 AM 2.8987 -156.7993 49° Northeast 518 596 37,000  Level FlightAware Transoceanic
Tue 06:43:00 AM 2.9922 -156.6908 49° Northeast 518 596 37,000  Level FlightAware Transoceanic
Tue 06:44:00 AM 3.0858 -156.5822 49° Northeast 518 596 37,000  Level FlightAware Transoceanic
Tue 06:45:00 AM 3.1793 -156.4737 49° Northeast 518 596 37,000  Level FlightAware Transoceanic
Tue 06:46:00 AM 3.2728 -156.3651 49° Northeast 518 596 37,000  Level FlightAware Transoceanic
Tue 06:47:00 AM 3.3663 -156.2566 49° Northeast 518 596 37,000  Level FlightAware Transoceanic
Tue 06:48:00 AM 3.4598 -156.1480 49° Northeast 518 596 37,000 1,364 Level FlightAware Transoceanic
Tue 06:48:28 AM 3.4500 -156.1500 49° Northeast 518 596 39,000  Climbing Oakland Oceanic (ODAPS)
Tue 06:49:00 AM 3.5533 -156.0394 49° Northeast 518 596 37,000 -1,304 Descending FlightAware Transoceanic
Tue 06:50:00 AM 3.6467 -155.9307 49° Northeast 518 596 37,000  Level FlightAware Transoceanic
Tue 06:51:00 AM 3.7402 -155.8220 49° Northeast 518 596 37,000  Level FlightAware Transoceanic
Tue 06:52:00 AM 3.8336 -155.7133 49° Northeast 518 596 37,000  Level FlightAware Transoceanic
Tue 06:53:00 AM 3.9270 -155.6046 49° Northeast 518 596 37,000 1,000 Level FlightAware Transoceanic
Tue 06:54:00 AM 4.0122 -155.4976 49° Northeast 518 596 39,000 1,000 Climbing FlightAware Transoceanic
Tue 06:55:00 AM 4.1059 -155.3888 49° Northeast 518 596 39,000  Level FlightAware Transoceanic
Tue 06:56:00 AM 4.1995 -155.2800 49° Northeast 518 596 39,000  Level FlightAware Transoceanic
Tue 06:57:00 AM 4.2931 -155.1711 49° Northeast 518 596 39,000  Level FlightAware Transoceanic
Tue 06:58:00 AM 4.3867 -155.0622 49° Northeast 518 596 39,000  Level FlightAware Transoceanic
Tue 06:59:00 AM 4.4803 -154.9533 49° Northeast 518 596 39,000  Level FlightAware Transoceanic
Tue 07:00:00 AM 4.5739 -154.8443 49° Northeast 518 596 39,000  Level FlightAware Transoceanic
Tue 07:01:00 AM 4.6674 -154.7354 49° Northeast 518 596 39,000  Level FlightAware Transoceanic
Tue 07:02:00 AM 4.7610 -154.6264 49° Northeast 518 596 39,000  Level FlightAware Transoceanic
Tue 07:02:20 AM 4.7500 -154.6500 49° Northeast 518 596 39,000  Level Oakland Oceanic (ODAPS)
Tue 07:03:00 AM 4.8545 -154.5173 49° Northeast 518 596 39,000  Level FlightAware Transoceanic
Tue 07:04:00 AM 4.9480 -154.4083 49° Northeast 518 596 39,000  Level FlightAware Transoceanic
Tue 07:05:00 AM 5.0415 -154.2992 49° Northeast 518 596 39,000  Level FlightAware Transoceanic
Tue 07:06:00 AM 5.1350 -154.1900 49° Northeast 518 596 39,000  Level FlightAware Transoceanic
Tue 07:07:00 AM 5.2284 -154.0809 49° Northeast 518 596 39,000  Level FlightAware Transoceanic
Tue 07:08:00 AM 5.3136 -153.9894 49° Northeast 518 596 39,000  Level FlightAware Transoceanic
Tue 07:09:00 AM 5.4075 -153.8792 49° Northeast 518 596 39,000  Level FlightAware Transoceanic
Tue 07:10:00 AM 5.5014 -153.7690 49° Northeast 518 596 39,000  Level FlightAware Transoceanic
Tue 07:11:00 AM 5.5952 -153.6587 49° Northeast 518 596 39,000  Level FlightAware Transoceanic
Tue 07:12:00 AM 5.6890 -153.5484 49° Northeast 518 596 39,000  Level FlightAware Transoceanic
Tue 07:13:00 AM 5.7828 -153.4381 50° Northeast 518 596 39,000  Level FlightAware Transoceanic
Tue 07:14:00 AM 5.8766 -153.3277 50° Northeast 518 596 39,000  Level FlightAware Transoceanic
Tue 07:15:00 AM 5.9703 -153.2173 50° Northeast 518 596 39,000  Level FlightAware Transoceanic
Tue 07:16:00 AM 6.0640 -153.1068 50° Northeast 518 596 39,000  Level FlightAware Transoceanic
Tue 07:16:12 AM 6.0500 -153.1167 49° Northeast 512 589 39,000  Level Oakland Oceanic (ODAPS)
Tue 07:17:00 AM 6.1577 -152.9963 50° Northeast 518 596 39,000  Level FlightAware Transoceanic
Tue 07:18:00 AM 6.2514 -152.8858 50° Northeast 518 596 39,000  Level FlightAware Transoceanic
Tue 07:19:00 AM 6.3451 -152.7752 50° Northeast 518 596 39,000  Level FlightAware Transoceanic
Tue 07:20:00 AM 6.4387 -152.6646 50° Northeast 518 596 39,000  Level FlightAware Transoceanic
Tue 07:21:00 AM 6.5323 -152.5539 50° Northeast 518 596 39,000  Level FlightAware Transoceanic
Tue 07:22:00 AM 6.6203 -152.4472 49° Northeast 512 589 39,000  Level FlightAware Transoceanic
Tue 07:23:00 AM 6.7153 -152.3354 49° Northeast 512 589 39,000  Level FlightAware Transoceanic
Tue 07:24:00 AM 6.8102 -152.2237 49° Northeast 512 589 39,000  Level FlightAware Transoceanic
Tue 07:25:00 AM 6.9051 -152.1119 49° Northeast 512 589 39,000  Level FlightAware Transoceanic
Tue 07:26:00 AM 7.0000 -152.0000 53° Northeast 512 589 39,000  Level FlightAware Transoceanic
Tue 07:26:32 AM 7.0000 -152.0000 53° Northeast 523 602 39,000  Level Oakland Oceanic (ODAPS)
Tue 07:27:00 AM 7.0862 -151.8865 53° Northeast 512 589 39,000  Level FlightAware Transoceanic
Tue 07:28:00 AM 7.1725 -151.7730 53° Northeast 512 589 39,000  Level FlightAware Transoceanic
Tue 07:29:00 AM 7.2587 -151.6595 53° Northeast 512 589 39,000  Level FlightAware Transoceanic
Tue 07:30:00 AM 7.3448 -151.5459 53° Northeast 512 589 39,000  Level FlightAware Transoceanic
Tue 07:30:04 AM 7.3167 -151.5833 53° Northeast 520 598 39,000  Level Oakland Oceanic (ODAPS)
Tue 07:31:00 AM 7.4310 -151.4322 53° Northeast 512 589 39,000  Level FlightAware Transoceanic
Tue 07:32:00 AM 7.5323 -151.2985 53° Northeast 523 602 39,000  Level FlightAware Transoceanic
Tue 07:33:00 AM 7.6209 -151.1814 53° Northeast 523 602 39,000  Level FlightAware Transoceanic
Tue 07:34:00 AM 7.7094 -151.0643 53° Northeast 523 602 39,000  Level FlightAware Transoceanic
Tue 07:35:00 AM 7.7980 -150.9471 53° Northeast 523 602 39,000  Level FlightAware Transoceanic
Tue 07:36:00 AM 7.8385 -150.8936 53° Northeast 520 598 39,000  Level FlightAware Transoceanic
Tue 07:37:00 AM 7.9254 -150.7785 53° Northeast 520 598 39,000  Level FlightAware Transoceanic
Tue 07:38:00 AM 8.0122 -150.6634 53° Northeast 520 598 39,000  Level FlightAware Transoceanic
Tue 07:39:00 AM 8.0991 -150.5482 53° Northeast 520 598 39,000  Level FlightAware Transoceanic
Tue 07:40:00 AM 8.1858 -150.4329 53° Northeast 520 598 39,000  Level FlightAware Transoceanic
Tue 07:41:00 AM 8.2726 -150.3176 53° Northeast 520 598 39,000  Level FlightAware Transoceanic
Tue 07:42:00 AM 8.3593 -150.2022 53° Northeast 520 598 39,000  Level FlightAware Transoceanic
Tue 07:43:00 AM 8.4460 -150.0868 53° Northeast 520 598 39,000  Level FlightAware Transoceanic
Tue 07:43:57 AM 8.5000 -150.0000 53° Northeast 515 593 39,000  Level Oakland Oceanic (ODAPS)
Tue 07:44:00 AM 8.5326 -149.9713 53° Northeast 520 598 39,000  Level FlightAware Transoceanic
Tue 07:45:00 AM 8.6192 -149.8558 53° Northeast 520 598 39,000  Level FlightAware Transoceanic
Tue 07:46:00 AM 8.7058 -149.7403 53° Northeast 520 598 39,000  Level FlightAware Transoceanic
Tue 07:47:00 AM 8.7923 -149.6246 53° Northeast 520 598 39,000  Level FlightAware Transoceanic
Tue 07:48:00 AM 8.8788 -149.5090 53° Northeast 520 598 39,000  Level FlightAware Transoceanic
Tue 07:49:00 AM 8.9653 -149.3932 53° Northeast 520 598 39,000  Level FlightAware Transoceanic
Tue 07:50:00 AM 9.0307 -149.2961 53° Northeast 515 593 39,000  Level FlightAware Transoceanic
Tue 07:51:00 AM 9.1190 -149.1785 53° Northeast 515 593 39,000  Level FlightAware Transoceanic
Tue 07:52:00 AM 9.2073 -149.0609 53° Northeast 515 593 39,000  Level FlightAware Transoceanic
Tue 07:53:00 AM 9.2955 -148.9433 53° Northeast 515 593 39,000  Level FlightAware Transoceanic
Tue 07:54:00 AM 9.3837 -148.8256 53° Northeast 515 593 39,000  Level FlightAware Transoceanic
Tue 07:55:00 AM 9.4719 -148.7079 53° Northeast 515 593 39,000  Level FlightAware Transoceanic
Tue 07:56:00 AM 9.5600 -148.5900 53° Northeast 515 593 39,000  Level FlightAware Transoceanic
Tue 07:57:00 AM 9.6481 -148.4722 53° Northeast 515 593 39,000  Level FlightAware Transoceanic
Tue 07:57:49 AM 9.7000 -148.4167 54° Northeast 503 579 39,000  Level Oakland Oceanic (ODAPS)
Tue 07:58:00 AM 9.7361 -148.3542 53° Northeast 515 593 39,000  Level FlightAware Transoceanic
Tue 07:59:00 AM 9.8241 -148.2362 53° Northeast 515 593 39,000  Level FlightAware Transoceanic
Tue 08:00:00 AM 9.9121 -148.1181 53° Northeast 515 593 39,000  Level FlightAware Transoceanic
Tue 08:01:00 AM 10.0000 -148.0000 57° Northeast 515 593 39,000  Level FlightAware Transoceanic
Tue 08:01:20 AM 10.0000 -148.0000 57° Northeast 533 613 39,000  Level Oakland Oceanic (ODAPS)
Tue 08:02:00 AM 10.0811 -147.8753 57° Northeast 515 593 39,000  Level FlightAware Transoceanic
Tue 08:03:00 AM 10.1621 -147.7505 57° Northeast 515 593 39,000  Level FlightAware Transoceanic
Tue 08:04:00 AM 10.2431 -147.6257 57° Northeast 503 579 39,000  Level FlightAware Transoceanic
Tue 08:05:00 AM 10.3240 -147.5007 57° Northeast 503 579 39,000  Level FlightAware Transoceanic
Tue 08:06:00 AM 10.4049 -147.3758 57° Northeast 503 579 39,000  Level FlightAware Transoceanic
Tue 08:07:00 AM 10.4858 -147.2507 57° Northeast 533 613 39,000  Level FlightAware Transoceanic
Tue 08:08:00 AM 10.5666 -147.1256 57° Northeast 533 613 39,000  Level FlightAware Transoceanic
Tue 08:09:00 AM 10.6473 -147.0005 57° Northeast 533 613 39,000  Level FlightAware Transoceanic
Tue 08:10:00 AM 10.7280 -146.8752 57° Northeast 533 613 39,000  Level FlightAware Transoceanic
Tue 08:11:00 AM 10.8086 -146.7499 57° Northeast 533 613 39,000  Level FlightAware Transoceanic
Tue 08:11:41 AM 10.8333 -146.7167 57° Northeast 533 613 39,000  Level Oakland Oceanic (ODAPS)
Tue 08:12:00 AM 10.8892 -146.6246 57° Northeast 533 613 39,000  Level FlightAware Transoceanic
Tue 08:13:00 AM 10.9698 -146.4991 57° Northeast 533 613 39,000  Level FlightAware Transoceanic
Tue 08:14:00 AM 11.0503 -146.3736 57° Northeast 533 613 39,000  Level FlightAware Transoceanic
Tue 08:15:00 AM 11.1307 -146.2480 57° Northeast 533 613 39,000  Level FlightAware Transoceanic
Tue 08:16:00 AM 11.2111 -146.1224 57° Northeast 533 613 39,000  Level FlightAware Transoceanic
Tue 08:17:00 AM 11.2411 -146.0802 57° Northeast 533 613 39,000  Level FlightAware Transoceanic
Tue 08:18:00 AM 11.3225 -145.9526 57° Northeast 533 613 39,000  Level FlightAware Transoceanic
Tue 08:19:00 AM 11.4038 -145.8250 57° Northeast 533 613 39,000  Level FlightAware Transoceanic
Tue 08:20:00 AM 11.4851 -145.6974 57° Northeast 533 613 39,000  Level FlightAware Transoceanic
Tue 08:21:00 AM 11.5663 -145.5697 57° Northeast 533 613 39,000  Level FlightAware Transoceanic
Tue 08:22:00 AM 11.6475 -145.4418 57° Northeast 533 613 39,000  Level FlightAware Transoceanic
Tue 08:23:00 AM 11.7286 -145.3140 57° Northeast 533 613 39,000  Level FlightAware Transoceanic
Tue 08:24:00 AM 11.8096 -145.1860 57° Northeast 533 613 39,000  Level FlightAware Transoceanic
Tue 08:25:00 AM 11.8906 -145.0580 57° Northeast 533 613 39,000  Level FlightAware Transoceanic
Tue 08:25:33 AM 11.9167 -145.0000 57° Northeast 533 613 39,000  Level Oakland Oceanic (ODAPS)
Tue 08:26:00 AM 11.9715 -144.9299 57° Northeast 533 613 39,000  Level FlightAware Transoceanic
Tue 08:27:00 AM 12.0524 -144.8017 57° Northeast 533 613 39,000  Level FlightAware Transoceanic
Tue 08:28:00 AM 12.1333 -144.6734 57° Northeast 533 613 39,000  Level FlightAware Transoceanic
Tue 08:29:00 AM 12.2140 -144.5451 57° Northeast 533 613 39,000  Level FlightAware Transoceanic
Tue 08:30:00 AM 12.2947 -144.4166 57° Northeast 533 613 39,000  Level FlightAware Transoceanic
Tue 08:31:00 AM 12.3754 -144.2881 57° Northeast 533 613 39,000  Level FlightAware Transoceanic
Tue 08:32:00 AM 12.4772 -144.1118 57° Northeast 533 613 39,000  Level FlightAware Transoceanic
Tue 08:33:00 AM 12.5570 -143.9846 57° Northeast 533 613 39,000  Level FlightAware Transoceanic
Tue 08:34:00 AM 12.6368 -143.8574 57° Northeast 533 613 39,000  Level FlightAware Transoceanic
Tue 08:35:00 AM 12.7165 -143.7300 57° Northeast 533 613 39,000  Level FlightAware Transoceanic
Tue 08:36:00 AM 12.7961 -143.6026 57° Northeast 533 613 39,000  Level FlightAware Transoceanic
Tue 08:37:00 AM 12.8757 -143.4751 57° Northeast 533 613 39,000  Level FlightAware Transoceanic
Tue 08:38:00 AM 12.9553 -143.3475 57° Northeast 533 613 39,000  Level FlightAware Transoceanic
Tue 08:39:00 AM 13.0347 -143.2198 57° Northeast 533 613 39,000  Level FlightAware Transoceanic
Tue 08:39:25 AM 13.0000 -143.2833 57° Northeast 528 608 39,000  Level Oakland Oceanic (ODAPS)
Tue 08:40:00 AM 13.1141 -143.0920 57° Northeast 533 613 39,000  Level FlightAware Transoceanic
Tue 08:41:00 AM 13.1935 -142.9642 58° Northeast 533 613 39,000  Level FlightAware Transoceanic
Tue 08:42:00 AM 13.2728 -142.8363 58° Northeast 533 613 39,000  Level FlightAware Transoceanic
Tue 08:43:00 AM 13.3520 -142.7083 58° Northeast 533 613 39,000  Level FlightAware Transoceanic
Tue 08:44:00 AM 13.4311 -142.5802 58° Northeast 533 613 39,000  Level FlightAware Transoceanic
Tue 08:45:00 AM 13.4654 -142.5307 58° Northeast 528 608 39,000  Level FlightAware Transoceanic
Tue 08:46:00 AM 13.5428 -142.4049 58° Northeast 528 608 39,000  Level FlightAware Transoceanic
Tue 08:47:00 AM 13.6200 -142.2791 58° Northeast 528 608 39,000  Level FlightAware Transoceanic
Tue 08:48:00 AM 13.6973 -142.1532 58° Northeast 528 608 39,000  Level FlightAware Transoceanic
Tue 08:49:00 AM 13.7744 -142.0272 58° Northeast 528 608 39,000  Level FlightAware Transoceanic
Tue 08:50:00 AM 13.8515 -141.9012 58° Northeast 528 608 39,000  Level FlightAware Transoceanic
Tue 08:51:00 AM 13.9285 -141.7750 58° Northeast 528 608 39,000  Level FlightAware Transoceanic
Tue 08:52:00 AM 14.0055 -141.6488 58° Northeast 528 608 39,000  Level FlightAware Transoceanic
Tue 08:53:00 AM 14.0824 -141.5225 58° Northeast 528 608 39,000  Level FlightAware Transoceanic
Tue 08:53:17 AM 14.0667 -141.5333 58° Northeast 522 601 39,000  Level Oakland Oceanic (ODAPS)
Tue 08:54:00 AM 14.1593 -141.3961 58° Northeast 528 608 39,000  Level FlightAware Transoceanic
Tue 08:55:00 AM 14.2360 -141.2696 58° Northeast 528 608 39,000  Level FlightAware Transoceanic
Tue 08:56:00 AM 14.3127 -141.1431 58° Northeast 528 608 39,000  Level FlightAware Transoceanic
Tue 08:57:00 AM 14.3894 -141.0164 58° Northeast 528 608 39,000  Level FlightAware Transoceanic
Tue 08:58:00 AM 14.4659 -140.8897 58° Northeast 528 608 39,000  Level FlightAware Transoceanic
Tue 08:59:00 AM 14.5346 -140.7683 58° Northeast 522 601 39,000  Level FlightAware Transoceanic
Tue 09:00:00 AM 14.6123 -140.6405 58° Northeast 522 601 39,000  Level FlightAware Transoceanic
Tue 09:01:00 AM 14.6900 -140.5126 58° Northeast 522 601 39,000  Level FlightAware Transoceanic
Tue 09:02:00 AM 14.7676 -140.3846 58° Northeast 522 601 39,000  Level FlightAware Transoceanic
Tue 09:03:00 AM 14.8451 -140.2565 58° Northeast 522 601 39,000  Level FlightAware Transoceanic
Tue 09:04:00 AM 14.9226 -140.1283 58° Northeast 522 601 39,000  Level FlightAware Transoceanic
Tue 09:05:00 AM 15.0000 -140.0000 51° Northeast 522 601 39,000  Level FlightAware Transoceanic
Tue 09:05:17 AM 15.0000 -140.0000 51° Northeast 537 618 39,000  Level Oakland Oceanic (ODAPS)
Tue 09:06:00 AM 15.0946 -139.8808 51° Northeast 522 601 39,000  Level FlightAware Transoceanic
Tue 09:07:00 AM 15.1892 -139.7615 51° Northeast 522 601 39,000  Level FlightAware Transoceanic
Tue 09:07:10 AM 15.1833 -139.7833 51° Northeast 535 616 39,000  Level Oakland Oceanic (ODAPS)
Tue 09:08:00 AM 15.2837 -139.6421 51° Northeast 522 601 39,000  Level FlightAware Transoceanic
Tue 09:09:00 AM 15.3781 -139.5226 51° Northeast 522 601 39,000  Level FlightAware Transoceanic
Tue 09:10:00 AM 15.4725 -139.4030 51° Northeast 522 601 39,000  Level FlightAware Transoceanic
Tue 09:11:00 AM 15.5668 -139.2833 51° Northeast 537 618 39,000  Level FlightAware Transoceanic
Tue 09:12:00 AM 15.6611 -139.1634 51° Northeast 537 618 39,000  Level FlightAware Transoceanic
Tue 09:13:00 AM 15.7500 -139.0633 51° Northeast 535 616 39,000  Level FlightAware Transoceanic
Tue 09:14:00 AM 15.8443 -138.9429 51° Northeast 535 616 39,000  Level FlightAware Transoceanic
Tue 09:15:00 AM 15.9384 -138.8224 51° Northeast 535 616 39,000  Level FlightAware Transoceanic
Tue 09:16:00 AM 16.0325 -138.7018 51° Northeast 535 616 39,000  Level FlightAware Transoceanic
Tue 09:17:00 AM 16.1265 -138.5810 51° Northeast 535 616 39,000  Level FlightAware Transoceanic
Tue 09:18:00 AM 16.2205 -138.4602 51° Northeast 535 616 39,000  Level FlightAware Transoceanic
Tue 09:19:00 AM 16.3144 -138.3392 51° Northeast 535 616 39,000  Level FlightAware Transoceanic
Tue 09:20:00 AM 16.4082 -138.2182 51° Northeast 535 616 39,000  Level FlightAware Transoceanic
Tue 09:21:00 AM 16.5019 -138.0970 51° Northeast 535 616 39,000  Level FlightAware Transoceanic
Tue 09:21:02 AM 16.4833 -138.1167 51° Northeast 539 620 39,000  Level Oakland Oceanic (ODAPS)
Tue 09:22:00 AM 16.5956 -137.9756 51° Northeast 535 616 39,000  Level FlightAware Transoceanic
Tue 09:23:00 AM 16.6892 -137.8542 51° Northeast 535 616 39,000  Level FlightAware Transoceanic
Tue 09:24:00 AM 16.7827 -137.7327 51° Northeast 535 616 39,000  Level FlightAware Transoceanic
Tue 09:25:00 AM 16.8762 -137.6110 51° Northeast 535 616 39,000  Level FlightAware Transoceanic
Tue 09:26:00 AM 16.9696 -137.4892 51° Northeast 535 616 39,000  Level FlightAware Transoceanic
Tue 09:27:00 AM 17.0467 -137.3847 51° Northeast 539 620 39,000  Level FlightAware Transoceanic
Tue 09:28:00 AM 17.1403 -137.2623 51° Northeast 539 620 39,000  Level FlightAware Transoceanic
Tue 09:29:00 AM 17.2339 -137.1397 51° Northeast 539 620 39,000  Level FlightAware Transoceanic
Tue 09:30:00 AM 17.3274 -137.0171 51° Northeast 539 620 39,000  Level FlightAware Transoceanic
Tue 09:31:00 AM 17.4208 -136.8943 51° Northeast 539 620 39,000  Level FlightAware Transoceanic
Tue 09:32:00 AM 17.5141 -136.7714 51° Northeast 539 620 39,000  Level FlightAware Transoceanic
Tue 09:33:00 AM 17.6074 -136.6483 52° Northeast 539 620 39,000  Level FlightAware Transoceanic
Tue 09:34:00 AM 17.7005 -136.5251 52° Northeast 539 620 39,000 1,053 Level FlightAware Transoceanic
Tue 09:34:54 AM 17.7833 -136.4167 52° Northeast 543 625 41,000  Climbing Oakland Oceanic (ODAPS)
Tue 09:35:00 AM 17.7936 -136.4018 52° Northeast 539 620 39,000 -1,818 Descending FlightAware Transoceanic
Tue 09:36:00 AM 17.8867 -136.2784 52° Northeast 539 620 39,000  Level FlightAware Transoceanic
Tue 09:37:00 AM 17.9796 -136.1549 52° Northeast 539 620 39,000  Level FlightAware Transoceanic
Tue 09:38:00 AM 18.0725 -136.0312 52° Northeast 539 620 39,000  Level FlightAware Transoceanic
Tue 09:39:00 AM 18.1653 -135.9073 52° Northeast 539 620 39,000  Level FlightAware Transoceanic
Tue 09:40:00 AM 18.2580 -135.7834 52° Northeast 539 620 39,000 1,000 Level FlightAware Transoceanic
Tue 09:41:00 AM 18.3422 -135.6717 52° Northeast 543 625 41,000 1,000 Climbing FlightAware Transoceanic
Tue 09:42:00 AM 18.4350 -135.5470 52° Northeast 543 625 41,000  Level FlightAware Transoceanic
Tue 09:43:00 AM 18.5278 -135.4223 52° Northeast 543 625 41,000  Level FlightAware Transoceanic
Tue 09:44:00 AM 18.6205 -135.2974 52° Northeast 543 625 41,000  Level FlightAware Transoceanic
Tue 09:45:00 AM 18.7131 -135.1723 52° Northeast 543 625 41,000  Level FlightAware Transoceanic
Tue 09:46:00 AM 18.8056 -135.0472 52° Northeast 543 625 41,000  Level FlightAware Transoceanic
Tue 09:47:00 AM 18.8981 -134.9219 52° Northeast 543 625 41,000  Level FlightAware Transoceanic
Tue 09:48:00 AM 18.9904 -134.7964 52° Northeast 543 625 41,000  Level FlightAware Transoceanic
Tue 09:48:47 AM 19.0667 -134.7000 52° Northeast 538 619 41,000  Level Oakland Oceanic (ODAPS)
Tue 09:49:00 AM 19.0827 -134.6708 52° Northeast 543 625 41,000  Level FlightAware Transoceanic
Tue 09:50:00 AM 19.1749 -134.5451 52° Northeast 543 625 41,000  Level FlightAware Transoceanic
Tue 09:51:00 AM 19.2670 -134.4192 52° Northeast 543 625 41,000  Level FlightAware Transoceanic
Tue 09:52:00 AM 19.3590 -134.2932 52° Northeast 543 625 41,000  Level FlightAware Transoceanic
Tue 09:53:00 AM 19.4510 -134.1671 52° Northeast 543 625 41,000  Level FlightAware Transoceanic
Tue 09:54:00 AM 19.5428 -134.0408 52° Northeast 543 625 41,000  Level FlightAware Transoceanic
Tue 09:55:00 AM 19.6232 -133.9353 52° Northeast 538 619 41,000  Level FlightAware Transoceanic
Tue 09:56:00 AM 19.7156 -133.8073 53° Northeast 538 619 41,000  Level FlightAware Transoceanic
Tue 09:57:00 AM 19.8080 -133.6792 53° Northeast 538 619 41,000  Level FlightAware Transoceanic
Tue 09:58:00 AM 19.9002 -133.5510 53° Northeast 538 619 41,000  Level FlightAware Transoceanic
Tue 09:59:00 AM 19.9924 -133.4226 53° Northeast 538 619 41,000  Level FlightAware Transoceanic
Tue 10:00:00 AM 20.0845 -133.2940 53° Northeast 538 619 41,000  Level FlightAware Transoceanic
Tue 10:01:00 AM 20.1765 -133.1653 53° Northeast 538 619 41,000  Level FlightAware Transoceanic
Tue 10:02:00 AM 20.2684 -133.0364 53° Northeast 538 619 41,000  Level FlightAware Transoceanic
Tue 10:02:38 AM 20.3000 -132.9833 53° Northeast 533 613 41,000  Level Oakland Oceanic (ODAPS)
Tue 10:03:00 AM 20.3601 -132.9074 53° Northeast 538 619 41,000  Level FlightAware Transoceanic
Tue 10:04:00 AM 20.4518 -132.7783 53° Northeast 538 619 41,000  Level FlightAware Transoceanic
Tue 10:05:00 AM 20.5434 -132.6489 53° Northeast 538 619 41,000  Level FlightAware Transoceanic
Tue 10:06:00 AM 20.6350 -132.5195 53° Northeast 538 619 41,000  Level FlightAware Transoceanic
Tue 10:07:00 AM 20.7264 -132.3898 53° Northeast 538 619 41,000  Level FlightAware Transoceanic
Tue 10:08:00 AM 20.8006 -132.2819 53° Northeast 533 613 41,000  Level FlightAware Transoceanic
Tue 10:09:00 AM 20.9003 -132.1410 53° Northeast 533 613 41,000  Level FlightAware Transoceanic
Tue 10:10:00 AM 21.0000 -132.0000 43° Northeast 533 613 41,000  Level FlightAware Transoceanic
Tue 10:10:35 AM 21.0000 -132.0000 43° Northeast 526 605 41,000  Level Oakland Oceanic (ODAPS)
Tue 10:11:00 AM 21.1114 -131.8896 43° Northeast 533 613 41,000  Level FlightAware Transoceanic
Tue 10:12:00 AM 21.2227 -131.7790 43° Northeast 533 613 41,000  Level FlightAware Transoceanic
Tue 10:13:00 AM 21.3340 -131.6682 43° Northeast 533 613 41,000  Level FlightAware Transoceanic
Tue 10:14:00 AM 21.4452 -131.5573 43° Northeast 533 613 41,000  Level FlightAware Transoceanic
Tue 10:15:00 AM 21.5563 -131.4461 43° Northeast 533 613 41,000  Level FlightAware Transoceanic
Tue 10:16:00 AM 21.6673 -131.3349 43° Northeast 533 613 41,000  Level FlightAware Transoceanic
Tue 10:16:30 AM 21.6500 -131.3500 43° Northeast 509 586 41,000  Level Oakland Oceanic (ODAPS)
Tue 10:17:00 AM 21.7006 -131.3015 43° Northeast 526 605 41,000  Level FlightAware Transoceanic
Tue 10:18:00 AM 21.8005 -131.2011 43° Northeast 526 605 41,000  Level FlightAware Transoceanic
Tue 10:19:00 AM 21.9003 -131.1006 43° Northeast 526 605 41,000  Level FlightAware Transoceanic
Tue 10:19:51 AM 22.0000 -131.0000 41° Northeast 519 597 41,000  Level Oakland Oceanic (ODAPS)
Tue 10:20:00 AM 22.0000 -131.0000 41° Northeast 526 605 41,000  Level FlightAware Transoceanic
Tue 10:21:00 AM 22.1100 -130.8981 41° Northeast 526 605 41,000  Level FlightAware Transoceanic
Tue 10:22:00 AM 22.2200 -130.7961 41° Northeast 509 586 41,000  Level FlightAware Transoceanic
Tue 10:23:00 AM 22.3299 -130.6939 41° Northeast 509 586 41,000  Level FlightAware Transoceanic
Tue 10:24:00 AM 22.4398 -130.5916 41° Northeast 509 586 41,000  Level FlightAware Transoceanic
Tue 10:25:00 AM 22.5496 -130.4890 41° Northeast 509 586 41,000  Level FlightAware Transoceanic
Tue 10:26:00 AM 22.6593 -130.3864 41° Northeast 519 597 41,000  Level FlightAware Transoceanic
Tue 10:27:00 AM 22.7689 -130.2835 41° Northeast 519 597 41,000  Level FlightAware Transoceanic
Tue 10:28:00 AM 22.8785 -130.1805 41° Northeast 519 597 41,000  Level FlightAware Transoceanic
Tue 10:29:00 AM 22.9881 -130.0773 41° Northeast 519 597 41,000  Level FlightAware Transoceanic
Tue 10:30:00 AM 23.0975 -129.9740 41° Northeast 519 597 41,000  Level FlightAware Transoceanic
Tue 10:30:23 AM 23.1833 -129.8833 41° Northeast 524 603 41,000  Level Oakland Oceanic (ODAPS)
Tue 10:31:00 AM 23.2069 -129.8705 41° Northeast 519 597 41,000  Level FlightAware Transoceanic
Tue 10:32:00 AM 23.3162 -129.7668 41° Northeast 519 597 41,000  Level FlightAware Transoceanic
Tue 10:33:00 AM 23.4255 -129.6630 41° Northeast 519 597 41,000  Level FlightAware Transoceanic
Tue 10:34:00 AM 23.5347 -129.5589 41° Northeast 519 597 41,000  Level FlightAware Transoceanic
Tue 10:35:00 AM 23.6438 -129.4547 41° Northeast 519 597 41,000  Level FlightAware Transoceanic
Tue 10:36:00 AM 23.8409 -129.2574 41° Northeast 524 603 41,000  Level FlightAware Transoceanic
Tue 10:37:00 AM 23.9502 -129.1525 41° Northeast 524 603 41,000  Level FlightAware Transoceanic
Tue 10:38:00 AM 24.0595 -129.0474 41° Northeast 524 603 41,000  Level FlightAware Transoceanic
Tue 10:39:00 AM 24.1687 -128.9421 41° Northeast 524 603 41,000  Level FlightAware Transoceanic
Tue 10:40:00 AM 24.2778 -128.8366 41° Northeast 524 603 41,000  Level FlightAware Transoceanic
Tue 10:41:00 AM 24.3869 -128.7309 41° Northeast 524 603 41,000  Level FlightAware Transoceanic
Tue 10:42:00 AM 24.4959 -128.6251 42° Northeast 524 603 41,000  Level FlightAware Transoceanic
Tue 10:43:00 AM 24.6048 -128.5191 42° Northeast 524 603 41,000  Level FlightAware Transoceanic
Tue 10:44:00 AM 24.7136 -128.4129 42° Northeast 524 603 41,000  Level FlightAware Transoceanic
Tue 10:44:16 AM 24.7500 -128.3833 42° Northeast 524 603 41,000  Level Oakland Oceanic (ODAPS)
Tue 10:45:00 AM 24.8224 -128.3065 42° Northeast 524 603 41,000  Level FlightAware Transoceanic
Tue 10:46:00 AM 24.9311 -128.1999 42° Northeast 524 603 41,000  Level FlightAware Transoceanic
Tue 10:47:00 AM 25.0397 -128.0932 42° Northeast 524 603 41,000  Level FlightAware Transoceanic
Tue 10:48:00 AM 25.1482 -127.9862 42° Northeast 524 603 41,000  Level FlightAware Transoceanic
Tue 10:49:00 AM 25.2567 -127.8791 42° Northeast 524 603 41,000  Level FlightAware Transoceanic
Tue 10:50:00 AM 25.3959 -127.7463 42° Northeast 524 603 41,000  Level FlightAware Transoceanic
Tue 10:51:00 AM 25.5032 -127.6395 42° Northeast 524 603 41,000  Level FlightAware Transoceanic
Tue 10:52:00 AM 25.6105 -127.5325 42° Northeast 524 603 41,000  Level FlightAware Transoceanic
Tue 10:53:00 AM 25.7178 -127.4252 42° Northeast 524 603 41,000  Level FlightAware Transoceanic
Tue 10:54:00 AM 25.8249 -127.3178 42° Northeast 524 603 41,000  Level FlightAware Transoceanic
Tue 10:55:00 AM 25.9320 -127.2102 42° Northeast 524 603 41,000  Level FlightAware Transoceanic
Tue 10:56:00 AM 26.0390 -127.1024 42° Northeast 524 603 41,000  Level FlightAware Transoceanic
Tue 10:57:00 AM 26.1459 -126.9945 42° Northeast 524 603 41,000  Level FlightAware Transoceanic
Tue 10:58:00 AM 26.2527 -126.8863 42° Northeast 524 603 41,000  Level FlightAware Transoceanic
Tue 10:58:07 AM 26.2667 -126.8833 42° Northeast 511 588 41,000  Level Oakland Oceanic (ODAPS)
Tue 10:59:00 AM 26.3594 -126.7779 42° Northeast 524 603 41,000  Level FlightAware Transoceanic
Tue 11:00:00 AM 26.4661 -126.6693 42° Northeast 524 603 41,000  Level FlightAware Transoceanic
Tue 11:01:00 AM 26.5727 -126.5605 42° Northeast 524 603 41,000  Level FlightAware Transoceanic
Tue 11:02:00 AM 26.6792 -126.4515 42° Northeast 524 603 41,000  Level FlightAware Transoceanic
Tue 11:03:00 AM 26.7856 -126.3423 43° Northeast 524 603 41,000  Level FlightAware Transoceanic
Tue 11:04:00 AM 26.9027 -126.2306 43° Northeast 511 588 41,000  Level FlightAware Transoceanic
Tue 11:05:00 AM 27.0084 -126.1211 43° Northeast 511 588 41,000  Level FlightAware Transoceanic
Tue 11:06:00 AM 27.1140 -126.0114 43° Northeast 511 588 41,000  Level FlightAware Transoceanic
Tue 11:07:00 AM 27.2195 -125.9014 43° Northeast 511 588 41,000  Level FlightAware Transoceanic
Tue 11:08:00 AM 27.3250 -125.7913 43° Northeast 511 588 41,000  Level FlightAware Transoceanic
Tue 11:09:00 AM 27.4303 -125.6810 43° Northeast 511 588 41,000  Level FlightAware Transoceanic
Tue 11:10:00 AM 27.5356 -125.5704 43° Northeast 511 588 41,000  Level FlightAware Transoceanic
Tue 11:11:00 AM 27.6408 -125.4597 43° Northeast 511 588 41,000  Level FlightAware Transoceanic
Tue 11:12:00 AM 27.7459 -125.3487 43° Northeast 511 588 41,000  Level FlightAware Transoceanic
Tue 11:12:00 AM 27.7333 -125.3667 43° Northeast 508 585 41,000  Level Oakland Oceanic (ODAPS)
Tue 11:13:00 AM 27.8509 -125.2375 43° Northeast 511 588 41,000  Level FlightAware Transoceanic
Tue 11:14:00 AM 27.9558 -125.1261 43° Northeast 511 588 41,000  Level FlightAware Transoceanic
Tue 11:15:00 AM 28.0606 -125.0145 43° Northeast 511 588 41,000  Level FlightAware Transoceanic
Tue 11:16:00 AM 28.1654 -124.9027 43° Northeast 511 588 41,000  Level FlightAware Transoceanic
Tue 11:17:00 AM 28.2700 -124.7906 43° Northeast 511 588 41,000  Level FlightAware Transoceanic
Tue 11:18:00 AM 28.3684 -124.6874 44° Northeast 508 585 41,000  Level FlightAware Transoceanic
Tue 11:19:00 AM 28.4739 -124.5734 44° Northeast 508 585 41,000  Level FlightAware Transoceanic
Tue 11:20:00 AM 28.5793 -124.4592 44° Northeast 508 585 41,000  Level FlightAware Transoceanic
Tue 11:21:00 AM 28.6846 -124.3447 44° Northeast 508 585 41,000  Level FlightAware Transoceanic
Tue 11:22:00 AM 28.7898 -124.2301 44° Northeast 508 585 41,000  Level FlightAware Transoceanic
Tue 11:23:00 AM 28.8950 -124.1152 44° Northeast 508 585 41,000  Level FlightAware Transoceanic
Tue 11:24:00 AM 29.0000 -124.0000 41° Northeast 508 585 41,000  Level FlightAware Transoceanic
Tue 11:24:32 AM 29.0000 -124.0000 41° Northeast 497 572 41,000  Level Oakland Oceanic (ODAPS)
Tue 11:25:00 AM 29.1030 -123.8985 41° Northeast 508 585 41,000  Level FlightAware Transoceanic
Tue 11:25:52 AM 29.1333 -123.8667 41° Northeast 491 565 41,000  Level Oakland Oceanic (ODAPS)
Tue 11:26:00 AM 29.2059 -123.7969 41° Northeast 508 585 41,000  Level FlightAware Transoceanic
Tue 11:27:00 AM 29.3087 -123.6950 41° Northeast 508 585 41,000  Level FlightAware Transoceanic
Tue 11:28:00 AM 29.4114 -123.5929 41° Northeast 508 585 41,000  Level FlightAware Transoceanic
Tue 11:29:00 AM 29.5140 -123.4907 41° Northeast 508 585 41,000  Level FlightAware Transoceanic
Tue 11:30:00 AM 29.6166 -123.3882 41° Northeast 497 572 41,000  Level FlightAware Transoceanic
Tue 11:31:00 AM 29.7191 -123.2855 41° Northeast 497 572 41,000  Level FlightAware Transoceanic
Tue 11:32:00 AM 29.7682 -123.2348 41° Northeast 491 565 41,000  Level FlightAware Transoceanic
Tue 11:33:00 AM 29.8737 -123.1287 41° Northeast 491 565 41,000  Level FlightAware Transoceanic
Tue 11:34:00 AM 29.9791 -123.0224 41° Northeast 491 565 41,000  Level FlightAware Transoceanic
Tue 11:35:00 AM 30.0845 -122.9159 41° Northeast 491 565 41,000  Level FlightAware Transoceanic
Tue 11:36:00 AM 30.1897 -122.8091 41° Northeast 491 565 41,000  Level FlightAware Transoceanic
Tue 11:37:00 AM 30.2949 -122.7021 41° Northeast 491 565 41,000  Level FlightAware Transoceanic
Tue 11:38:00 AM 30.4000 -122.5949 41° Northeast 491 565 41,000  Level FlightAware Transoceanic
Tue 11:39:00 AM 30.5050 -122.4875 41° Northeast 491 565 41,000  Level FlightAware Transoceanic
Tue 11:40:00 AM 30.6099 -122.3798 42° Northeast 491 565 41,000  Level FlightAware Transoceanic
Tue 11:40:55 AM 30.6975 -122.2547 42° Northeast 511 588 41,000  Level Los Angeles Center
Tue 11:41:00 AM 30.7147 -122.2719 42° Northeast 491 565 41,000  Level FlightAware Transoceanic
Tue 11:41:57 AM 30.7997 -122.1525 41° Northeast 485 558 41,000  Level Los Angeles Center
Tue 11:42:00 AM 30.8194 -122.1637 42° Northeast 491 565 41,000  Level FlightAware Transoceanic
Tue 11:42:59 AM 30.9025 -122.0519 40° Northeast 485 558 41,000  Level Los Angeles Center
Tue 11:43:00 AM 30.9241 -122.0553 42° Northeast 491 565 41,000  Level FlightAware Transoceanic
Tue 11:44:00 AM 31.0286 -121.9467 42° Northeast 491 565 41,000  Level FlightAware Transoceanic
Tue 11:44:01 AM 31.0253 -121.9242 42° Northeast 488 562 41,000  Level Los Angeles Center
Tue 11:45:00 AM 31.1331 -121.8379 42° Northeast 491 565 41,000  Level FlightAware Transoceanic
Tue 11:45:03 AM 31.1033 -121.7931 55° Northeast 491 565 41,000  Level Los Angeles Center
Tue 11:46:00 AM 31.2375 -121.7288 42° Northeast 491 565 41,000  Level FlightAware Transoceanic
Tue 11:46:05 AM 31.1800 -121.6597 56° Northeast 496 571 41,000  Level Los Angeles Center
Tue 11:47:07 AM 31.2547 -121.5244 57° Northeast 497 572 41,000  Level Los Angeles Center
Tue 11:48:09 AM 31.3289 -121.3953 56° Northeast 492 566 41,000  Level Los Angeles Center
Tue 11:49:12 AM 31.4050 -121.2664 55° Northeast 486 559 41,000  Level Los Angeles Center
Tue 11:50:14 AM 31.4947 -121.1139 55° Northeast 479 551 41,000  Level Los Angeles Center
Tue 11:51:16 AM 31.5669 -120.9769 58° Northeast 489 563 41,000  Level Los Angeles Center
Tue 11:52:18 AM 31.6403 -120.8408 58° Northeast 494 568 41,000  Level Los Angeles Center
Tue 11:53:20 AM 31.7122 -120.7050 58° Northeast 491 565 41,000  Level Los Angeles Center
Tue 11:54:22 AM 31.7836 -120.5703 58° Northeast 488 562 41,000  Level Los Angeles Center
Tue 11:55:24 AM 31.8700 -120.4072 58° Northeast 490 564 41,000  Level Los Angeles Center
Tue 11:56:26 AM 31.9414 -120.2731 58° Northeast 486 559 41,000 -1,504 Level Los Angeles Center
Tue 12:01:47 PM 32.4270 -119.6510 58° Northeast 469 540 31,400 -1,574 Descending FlightAware ADS-B
Tue 12:02:32 PM 32.4850 -119.5750 48° Northeast 469 540 31,400  Level FlightAware ADS-B
Tue 12:03:12 PM 32.5340 -119.5100 48° Northeast 469 540 31,400  Level FlightAware ADS-B
Tue 12:03:52 PM 32.5830 -119.4450 48° Northeast 469 540 31,400  Level FlightAware ADS-B
Tue 12:04:32 PM 32.6330 -119.3800 48° Northeast 469 540 31,400  Level FlightAware ADS-B
Tue 12:05:22 PM 32.6940 -119.2990 48° Northeast 469 540 31,400  Level FlightAware ADS-B
Tue 12:06:02 PM 32.7440 -119.2330 48° Northeast 469 540 31,400  Level FlightAware ADS-B
Tue 12:06:42 PM 32.7930 -119.1680 48° Northeast 469 540 31,400  Level FlightAware ADS-B
Tue 12:07:22 PM 32.8430 -119.1030 48° Northeast 469 540 31,400  Level FlightAware ADS-B
Tue 12:08:02 PM 32.8920 -119.0380 48° Northeast 469 540 31,400  Level FlightAware ADS-B
Tue 12:08:52 PM 32.9540 -118.9560 48° Northeast 469 540 31,400  Level FlightAware ADS-B
Tue 12:09:32 PM 33.0030 -118.8910 48° Northeast 469 540 31,400 -5,649 Level FlightAware ADS-B
Tue 12:10:07 PM 33.0700 -118.8220 41° Northeast 14,600 -7,018 Descending FlightAware ADS-B
Tue 12:12:17 PM 33.2150 -118.6310 48° Northeast 335 386 12,100 -882 Descending FlightAware ADS-B
Tue 12:12:57 PM 33.2550 -118.5780 48° Northeast 335 386 12,100  Level FlightAware ADS-B
Tue 12:13:47 PM 33.3200 -118.4930 48° Northeast 337 388 12,100  Level FlightAware ADS-B
Tue 12:14:27 PM 33.3600 -118.4400 48° Northeast 337 388 12,100  Level FlightAware ADS-B
Tue 12:14:57 PM 33.3800 -118.3910 64° Northeast 342 394 12,100  Level FlightAware ADS-B
Tue 12:15:37 PM 33.3910 -118.3110 81° East 344 396 12,100  Level FlightAware ADS-B
Tue 12:15:52 PM 33.3980 -118.2820 74° East 340 391 12,100 -200 Level FlightAware ADS-B
Tue 12:16:07 PM 33.4110 -118.2610 53° Northeast 336 387 12,000 -720 Descending FlightAware ADS-B
Tue 12:16:17 PM 33.4230 -118.2490 40° Northeast 333 383 11,800 -1,091 Descending FlightAware ADS-B
Tue 12:17:02 PM 33.4870 -118.2140 25° Northeast 328 377 11,000 -1,129 Descending FlightAware ADS-B
Tue 12:17:42 PM 33.5410 -118.1850 24° Northeast 297 342 10,200 -1,371 Descending FlightAware ADS-B
Tue 12:18:12 PM 33.5780 -118.1650 24° Northeast 286 329 9,400 -1,900 Descending FlightAware ADS-B
Tue 12:18:42 PM 33.6140 -118.1450 25° Northeast 279 321 8,300 -2,182 Descending FlightAware ADS-B
Tue 12:19:07 PM 33.6420 -118.1310 23° Northeast 274 315 7,400 -1,855 Descending FlightAware ADS-B
Tue 12:19:37 PM 33.6770 -118.1120 24° Northeast 271 312 6,600 -1,091 Descending FlightAware ADS-B
Tue 12:20:02 PM 33.7070 -118.0960 24° Northeast 272 313 6,400 -450 Descending FlightAware ADS-B
Tue 12:20:17 PM 33.7230 -118.0870 25° Northeast 272 313 6,300 -400 Descending FlightAware ADS-B
Tue 12:20:47 PM 33.7580 -118.0690 23° Northeast 272 313 6,100 -545 Descending FlightAware ADS-B
Tue 12:21:12 PM 33.7870 -118.0530 25° Northeast 257 296 5,800 -655 Descending FlightAware ADS-B
Tue 12:21:42 PM 33.8200 -118.0440 13° North 238 274 5,500 -545 Descending FlightAware ADS-B
Tue 12:22:07 PM 33.8460 -118.0400 North 235 270 5,300 -545 Descending FlightAware ADS-B
Tue 12:22:37 PM 33.8790 -118.0360 North 238 274 5,000 -800 Descending FlightAware ADS-B
Tue 12:22:52 PM 33.8960 -118.0340 North 240 276 4,700 -1,200 Descending FlightAware ADS-B
Tue 12:23:22 PM 33.9290 -118.0310 North 238 274 4,100 -1,029 Descending FlightAware ADS-B
Tue 12:24:02 PM 33.9720 -118.0380 352° North 224 258 3,500 -764 Descending FlightAware ADS-B
Tue 12:24:17 PM 33.9810 -118.0510 310° West 212 244 3,400 -720 Descending FlightAware ADS-B
Tue 12:24:27 PM 33.9850 -118.0620 294° West 209 241 3,200 -720 Descending FlightAware ADS-B
Tue 12:24:42 PM 33.9850 -118.0800 270° West 195 224 3,100 -667 Descending FlightAware ADS-B
Tue 12:25:12 PM 33.9810 -118.1110 261° West 183 211 2,700 -400 Descending FlightAware ADS-B
Tue 12:25:42 PM 33.9780 -118.1410 263° West 186 214 2,700  Level FlightAware ADS-B
Tue 12:26:07 PM 33.9760 -118.1660 264° West 187 215 2,700  Level FlightAware ADS-B
Tue 12:26:37 PM 33.9730 -118.1970 263° West 188 216 2,700  Level FlightAware ADS-B
Tue 12:27:02 PM 33.9700 -118.2230 262° West 189 217 2,700 -109 Level FlightAware ADS-B
Tue 12:27:32 PM 33.9670 -118.2550 264° West 190 219 2,600 -400 Descending FlightAware ADS-B
Tue 12:27:47 PM 33.9650 -118.2690 260° West 190 219 2,400 -450 Descending FlightAware ADS-B
Tue 12:28:12 PM 33.9630 -118.2940 264° West 190 219 2,300 -750 Descending FlightAware ADS-B
Tue 12:28:27 PM 33.9630 -118.2970 270° West 167 192 1,900 -1,200 Descending FlightAware ADS-B
Tue 12:28:52 PM 33.9600 -118.3210 261° West 152 175 1,500 -764 Descending FlightAware ADS-B
Tue 12:29:22 PM 33.9580 -118.3420 263° West 143 165 1,200 -700 Descending FlightAware ADS-B
Tue 12:29:52 PM 33.9560 -118.3670 264° West 143 165 800 -800 Descending FlightAware ADS-B
Tue 12:30:07 PM 33.9540 -118.3820 261° West 143 165 600 -750 Descending FlightAware ADS-B
Tue 12:30:32 PM 33.9520 -118.3990 262° West 148 170 300 -436 Descending FlightAware ADS-B
Tue 12:31:02 PM 33.9500 -118.4200 263° West 148 170 200 -200 Descending FlightAware ADS-B
Tue 12:38:00 PM 33.9425 -118.4081 296° West  Level Estimated

Login

Don't have an account? Register now (free) for customized features, flight alerts, and more!